Wetterdaten: Sonntag, 13.07.2014
Datum Zeit Temp. Aussen +5cm Feuchte Auss Luftdruck Regen Sonnenschein Regendauer UV Solar Windben
13.07.2014 00:00 17,4 C 16,7 C 96 % 1011,9 hPa 0,0 l/m 0 min 0 min 0,0 UV-I 0 W/m 10,5 km/h (2 Bft)
13.07.2014 00:02 17,4 C 16,7 C 96 % 1011,9 hPa 0,0 l/m 0 min 0 min 0,0 UV-I 0 W/m 0,0 km/h (0 Bft)
13.07.2014 00:06 17,4 C 16,7 C 96 % 1011,8 hPa 0,0 l/m 0 min 0 min 0,0 UV-I 0 W/m 10,5 km/h (2 Bft)
13.07.2014 00:08 17,4 C 16,7 C 96 % 1011,9 hPa 0,0 l/m 0 min 0 min 0,0 UV-I 0 W/m 8,4 km/h (2 Bft)
13.07.2014 00:10 17,4 C 16,7 C 96 % 1011,8 hPa 0,0 l/m 0 min 0 min 0,0 UV-I 0 W/m 10,5 km/h (2 Bft)
13.07.2014 00:12 17,4 C 16,7 C 96 % 1011,9 hPa 0,0 l/m 0 min 0 min 0,0 UV-I 0 W/m 8,4 km/h (2 Bft)
13.07.2014 00:14 17,4 C 16,7 C 96 % 1011,9 hPa 0,0 l/m 0 min 0 min 0,0 UV-I 0 W/m 2,1 km/h (1 Bft)
13.07.2014 00:16 17,4 C 16,7 C 96 % 1011,9 hPa 0,0 l/m 0 min 0 min 0,0 UV-I 0 W/m 6,3 km/h (2 Bft)
13.07.2014 00:18 17,4 C 16,7 C 96 % 1011,8 hPa 0,0 l/m 0 min 0 min 0,0 UV-I 0 W/m 6,3 km/h (2 Bft)
13.07.2014 00:20 17,4 C 16,7 C 96 % 1011,9 hPa 0,0 l/m 0 min 0 min 0,0 UV-I 0 W/m 0,0 km/h (0 Bft)
13.07.2014 00:22 17,4 C 16,7 C 96 % 1011,9 hPa 0,0 l/m 0 min 0 min 0,0 UV-I 0 W/m 8,4 km/h (2 Bft)
13.07.2014 00:24 17,4 C 16,7 C 96 % 1011,9 hPa 0,0 l/m 0 min 0 min 0,0 UV-I 0 W/m 8,4 km/h (2 Bft)
13.07.2014 00:26 17,4 C 16,7 C 96 % 1011,9 hPa 0,0 l/m 0 min 0 min 0,0 UV-I 0 W/m 8,4 km/h (2 Bft)
13.07.2014 00:28 17,4 C 16,7 C 96 % 1011,8 hPa 0,0 l/m 0 min 0 min 0,0 UV-I 0 W/m 10,5 km/h (2 Bft)
13.07.2014 00:30 17,4 C 16,7 C 96 % 1011,9 hPa 0,0 l/m 0 min 0 min 0,0 UV-I 0 W/m 0,0 km/h (0 Bft)
13.07.2014 00:32 17,4 C 16,7 C 96 % 1011,8 hPa 0,0 l/m 0 min 0 min 0,0 UV-I 0 W/m 6,3 km/h (2 Bft)
13.07.2014 00:34 17,4 C 16,7 C 96 % 1011,8 hPa 0,0 l/m 0 min 0 min 0,0 UV-I 0 W/m 8,4 km/h (2 Bft)
13.07.2014 00:36 17,4 C 16,7 C 96 % 1011,8 hPa 0,0 l/m 0 min 0 min 0,0 UV-I 0 W/m 10,5 km/h (2 Bft)
13.07.2014 00:38 17,4 C 16,7 C 96 % 1011,7 hPa 0,0 l/m 0 min 0 min 0,0 UV-I 0 W/m 8,4 km/h (2 Bft)
13.07.2014 00:40 17,3 C 16,7 C 96 % 1011,7 hPa 0,0 l/m 0 min 0 min 0,0 UV-I 0 W/m 10,5 km/h (2 Bft)
13.07.2014 00:42 17,3 C 16,7 C 96 % 1011,8 hPa 0,0 l/m 0 min 0 min 0,0 UV-I 0 W/m 10,5 km/h (2 Bft)
13.07.2014 00:44 17,3 C 16,7 C 96 % 1011,7 hPa 0,0 l/m 0 min 0 min 0,0 UV-I 0 W/m 6,3 km/h (2 Bft)
13.07.2014 00:46 17,3 C 16,7 C 96 % 1011,7 hPa 0,0 l/m 0 min 0 min 0,0 UV-I 0 W/m 8,4 km/h (2 Bft)
13.07.2014 00:48 17,3 C 16,1 C 96 % 1011,6 hPa 0,0 l/m 0 min 0 min 0,0 UV-I 0 W/m 12,6 km/h (3 Bft)
13.07.2014 00:50 17,3 C 16,1 C 96 % 1011,6 hPa 0,0 l/m 0 min 0 min 0,0 UV-I 0 W/m 10,5 km/h (2 Bft)
13.07.2014 00:52 17,3 C 16,1 C 96 % 1011,5 hPa 0,0 l/m 0 min 0 min 0,0 UV-I 0 W/m 8,4 km/h (2 Bft)
13.07.2014 00:54 17,3 C 16,1 C 96 % 1011,5 hPa 0,0 l/m 0 min 0 min 0,0 UV-I 0 W/m 6,3 km/h (2 Bft)
13.07.2014 00:56 17,3 C 16,1 C 96 % 1011,6 hPa 0,0 l/m 0 min 0 min 0,0 UV-I 0 W/m 10,5 km/h (2 Bft)
13.07.2014 00:58 17,3 C 16,1 C 96 % 1011,6 hPa 0,0 l/m 0 min 0 min 0,0 UV-I 0 W/m 8,4 km/h (2 Bft)
13.07.2014 01:00 17,3 C 16,1 C 96 % 1011,5 hPa 0,0 l/m 0 min 0 min 0,0 UV-I 0 W/m 8,4 km/h (2 Bft)
13.07.2014 01:02 17,3 C 16,1 C 96 % 1011,5 hPa 0,0 l/m 0 min 0 min 0,0 UV-I 0 W/m 8,4 km/h (2 Bft)
13.07.2014 01:04 17,3 C 16,1 C 96 % 1011,4 hPa 0,0 l/m 0 min 0 min 0,0 UV-I 0 W/m 2,1 km/h (1 Bft)
13.07.2014 01:06 17,3 C 16,1 C 96 % 1011,4 hPa 0,0 l/m 0 min 0 min 0,0 UV-I 0 W/m 8,4 km/h (2 Bft)
13.07.2014 01:08 17,3 C 16,1 C 96 % 1011,3 hPa 0,0 l/m 0 min 0 min 0,0 UV-I 0 W/m 8,4 km/h (2 Bft)
13.07.2014 01:10 17,3 C 16,1 C 96 % 1011,4 hPa 0,0 l/m 0 min 0 min 0,0 UV-I 0 W/m 8,4 km/h (2 Bft)
13.07.2014 01:12 17,3 C 16,1 C 96 % 1011,4 hPa 0,0 l/m 0 min 0 min 0,0 UV-I 0 W/m 8,4 km/h (2 Bft)
13.07.2014 01:14 17,3 C 16,1 C 96 % 1011,4 hPa 0,0 l/m 0 min 0 min 0,0 UV-I 0 W/m 6,3 km/h (2 Bft)
13.07.2014 01:16 17,3 C 16,1 C 96 % 1011,3 hPa 0,0 l/m 0 min 0 min 0,0 UV-I 0 W/m 6,3 km/h (2 Bft)
13.07.2014 01:18 17,3 C 16,1 C 96 % 1011,3 hPa 0,0 l/m 0 min 0 min 0,0 UV-I 0 W/m 2,1 km/h (1 Bft)
13.07.2014 01:20 17,3 C 16,1 C 96 % 1011,3 hPa 0,0 l/m 0 min 0 min 0,0 UV-I 0 W/m 8,4 km/h (2 Bft)
13.07.2014 01:22 17,3 C 16,1 C 96 % 1011,3 hPa 0,0 l/m 0 min 0 min 0,0 UV-I 0 W/m 8,4 km/h (2 Bft)
13.07.2014 01:24 17,3 C 16,1 C 96 % 1011,3 hPa 0,0 l/m 0 min 0 min 0,0 UV-I 0 W/m 8,4 km/h (2 Bft)
13.07.2014 01:26 17,2 C 16,1 C 96 % 1011,3 hPa 0,0 l/m 0 min 0 min 0,0 UV-I 0 W/m 8,4 km/h (2 Bft)
13.07.2014 01:28 17,2 C 16,1 C 96 % 1011,3 hPa 0,0 l/m 0 min 0 min 0,0 UV-I 0 W/m 8,4 km/h (2 Bft)
13.07.2014 01:30 17,2 C 16,1 C 96 % 1011,3 hPa 0,0 l/m 0 min 0 min 0,0 UV-I 0 W/m 6,3 km/h (2 Bft)
13.07.2014 01:32 17,2 C 16,1 C 96 % 1011,2 hPa 0,0 l/m 0 min 0 min 0,0 UV-I 0 W/m 8,4 km/h (2 Bft)
13.07.2014 01:34 17,2 C 16,1 C 96 % 1011,2 hPa 0,0 l/m 0 min 0 min 0,0 UV-I 0 W/m 10,5 km/h (2 Bft)
13.07.2014 01:36 17,2 C 16,1 C 96 % 1011,2 hPa 0,0 l/m 0 min 0 min 0,0 UV-I 0 W/m 6,3 km/h (2 Bft)
13.07.2014 01:38 17,2 C 16,1 C 96 % 1011,2 hPa 0,0 l/m 0 min 0 min 0,0 UV-I 0 W/m 8,4 km/h (2 Bft)
13.07.2014 01:40 17,1 C 16,1 C 96 % 1011,2 hPa 0,0 l/m 0 min 0 min 0,0 UV-I 0 W/m 8,4 km/h (2 Bft)
13.07.2014 01:42 17,1 C 16,1 C 96 % 1011,2 hPa 0,0 l/m 0 min 0 min 0,0 UV-I 0 W/m 8,4 km/h (2 Bft)
13.07.2014 01:44 17,1 C 16,1 C 96 % 1011,2 hPa 0,0 l/m 0 min 0 min 0,0 UV-I 0 W/m 4,2 km/h (1 Bft)
13.07.2014 01:46 17,1 C 16,1 C 96 % 1011,2 hPa 0,0 l/m 0 min 0 min 0,0 UV-I 0 W/m 6,3 km/h (2 Bft)
13.07.2014 01:48 17,1 C 16,1 C 96 % 1011,2 hPa 0,0 l/m 0 min 0 min 0,0 UV-I 0 W/m 10,5 km/h (2 Bft)
13.07.2014 01:50 17,1 C 16,1 C 96 % 1011,2 hPa 0,0 l/m 0 min 0 min 0,0 UV-I 0 W/m 10,5 km/h (2 Bft)
13.07.2014 01:52 17,1 C 16,1 C 96 % 1011,2 hPa 0,0 l/m 0 min 0 min 0,0 UV-I 0 W/m 8,4 km/h (2 Bft)
13.07.2014 01:54 17,1 C 16,1 C 96 % 1011,2 hPa 0,0 l/m 0 min 0 min 0,0 UV-I 0 W/m 14,6 km/h (3 Bft)
13.07.2014 01:56 17,1 C 16,1 C 96 % 1011,1 hPa 0,0 l/m 0 min 0 min 0,0 UV-I 0 W/m 10,5 km/h (2 Bft)
13.07.2014 01:58 17,1 C 16,1 C 96 % 1011,1 hPa 0,0 l/m 0 min 0 min 0,0 UV-I 0 W/m 8,4 km/h (2 Bft)
13.07.2014 02:00 17,0 C 16,1 C 96 % 1011,1 hPa 0,0 l/m 0 min 0 min 0,0 UV-I 0 W/m 10,5 km/h (2 Bft)
13.07.2014 02:02 17,0 C 16,1 C 96 % 1011,1 hPa 0,0 l/m 0 min 0 min 0,0 UV-I 0 W/m 10,5 km/h (2 Bft)
13.07.2014 02:04 17,0 C 16,1 C 96 % 1011,0 hPa 0,0 l/m 0 min 0 min 0,0 UV-I 0 W/m 10,5 km/h (2 Bft)
13.07.2014 02:06 17,0 C 16,1 C 96 % 1011,0 hPa 0,0 l/m 0 min 0 min 0,0 UV-I 0 W/m 14,6 km/h (3 Bft)
13.07.2014 02:08 16,9 C 16,1 C 96 % 1011,0 hPa 0,0 l/m 0 min 0 min 0,0 UV-I 0 W/m 10,5 km/h (2 Bft)
13.07.2014 02:10 16,9 C 16,1 C 96 % 1011,0 hPa 0,0 l/m 0 min 0 min 0,0 UV-I 0 W/m 10,5 km/h (2 Bft)
13.07.2014 02:12 16,9 C 16,1 C 96 % 1011,0 hPa 0,0 l/m 0 min 0 min 0,0 UV-I 0 W/m 10,5 km/h (2 Bft)
13.07.2014 02:14 16,9 C 16,1 C 96 % 1011,0 hPa 0,0 l/m 0 min 0 min 0,0 UV-I 0 W/m 10,5 km/h (2 Bft)
13.07.2014 02:16 16,9 C 16,1 C 97 % 1011,0 hPa 0,0 l/m 0 min 0 min 0,0 UV-I 0 W/m 6,3 km/h (2 Bft)
13.07.2014 02:18 16,9 C 16,1 C 97 % 1011,0 hPa 0,0 l/m 0 min 0 min 0,0 UV-I 0 W/m 8,4 km/h (2 Bft)
13.07.2014 02:20 16,9 C 16,1 C 97 % 1011,0 hPa 0,0 l/m 0 min 0 min 0,0 UV-I 0 W/m 8,4 km/h (2 Bft)
13.07.2014 02:22 16,9 C 16,1 C 97 % 1010,9 hPa 0,0 l/m 0 min 0 min 0,0 UV-I 0 W/m 10,5 km/h (2 Bft)
13.07.2014 02:24 16,9 C 16,1 C 96 % 1010,9 hPa 0,0 l/m 0 min 0 min 0,0 UV-I 0 W/m 8,4 km/h (2 Bft)
13.07.2014 02:26 16,9 C 16,1 C 96 % 1010,9 hPa 0,0 l/m 0 min 0 min 0,0 UV-I 0 W/m 10,5 km/h (2 Bft)
13.07.2014 02:28 16,9 C 16,1 C 97 % 1010,9 hPa 0,0 l/m 0 min 0 min 0,0 UV-I 0 W/m 10,5 km/h (2 Bft)
13.07.2014 02:30 16,9 C 16,1 C 97 % 1010,9 hPa 0,0 l/m 0 min 0 min 0,0 UV-I 0 W/m 10,5 km/h (2 Bft)
13.07.2014 02:32 16,8 C 16,1 C 97 % 1010,9 hPa 0,0 l/m 0 min 0 min 0,0 UV-I 0 W/m 8,4 km/h (2 Bft)
13.07.2014 02:34 16,8 C 16,1 C 97 % 1010,9 hPa 0,0 l/m 0 min 0 min 0,0 UV-I 0 W/m 16,7 km/h (3 Bft)
13.07.2014 02:36 16,8 C 15,6 C 97 % 1010,8 hPa 0,0 l/m 0 min 0 min 0,0 UV-I 0 W/m 8,4 km/h (2 Bft)
13.07.2014 02:38 16,8 C 15,6 C 97 % 1010,8 hPa 0,0 l/m 0 min 0 min 0,0 UV-I 0 W/m 10,5 km/h (2 Bft)
13.07.2014 02:40 16,7 C 15,6 C 97 % 1010,8 hPa 0,0 l/m 0 min 0 min 0,0 UV-I 0 W/m 8,4 km/h (2 Bft)
13.07.2014 02:42 16,7 C 15,6 C 97 % 1010,7 hPa 0,0 l/m 0 min 0 min 0,0 UV-I 0 W/m 8,4 km/h (2 Bft)
13.07.2014 02:44 16,7 C 15,6 C 97 % 1010,6 hPa 0,0 l/m 0 min 0 min 0,0 UV-I 0 W/m 14,6 km/h (3 Bft)
13.07.2014 02:46 16,6 C 15,6 C 97 % 1010,6 hPa 0,0 l/m 0 min 0 min 0,0 UV-I 0 W/m 6,3 km/h (2 Bft)
13.07.2014 02:48 16,6 C 15,6 C 97 % 1010,7 hPa 0,0 l/m 0 min 0 min 0,0 UV-I 0 W/m 10,5 km/h (2 Bft)
13.07.2014 02:50 16,6 C 15,6 C 97 % 1010,7 hPa 0,0 l/m 0 min 0 min 0,0 UV-I 0 W/m 4,2 km/h (1 Bft)
13.07.2014 02:52 16,6 C 15,6 C 97 % 1010,6 hPa 0,0 l/m 0 min 0 min 0,0 UV-I 0 W/m 6,3 km/h (2 Bft)
13.07.2014 02:54 16,6 C 15,6 C 97 % 1010,6 hPa 0,0 l/m 0 min 0 min 0,0 UV-I 0 W/m 6,3 km/h (2 Bft)
13.07.2014 02:56 16,5 C 15,6 C 97 % 1010,6 hPa 0,0 l/m 0 min 0 min 0,0 UV-I 0 W/m 6,3 km/h (2 Bft)
13.07.2014 02:58 16,6 C 15,6 C 97 % 1010,5 hPa 0,0 l/m 0 min 0 min 0,0 UV-I 0 W/m 8,4 km/h (2 Bft)
13.07.2014 03:00 16,6 C 15,6 C 97 % 1010,6 hPa 0,0 l/m 0 min 0 min 0,0 UV-I 0 W/m 0,0 km/h (0 Bft)
13.07.2014 03:02 16,5 C 15,6 C 97 % 1010,5 hPa 0,0 l/m 0 min 0 min 0,0 UV-I 0 W/m 2,1 km/h (1 Bft)
13.07.2014 03:04 16,5 C 15,6 C 97 % 1010,5 hPa 0,0 l/m 0 min 0 min 0,0 UV-I 0 W/m 10,5 km/h (2 Bft)
13.07.2014 03:06 16,4 C 15,6 C 97 % 1010,5 hPa 0,0 l/m 0 min 0 min 0,0 UV-I 0 W/m 8,4 km/h (2 Bft)
13.07.2014 03:08 16,4 C 15,6 C 97 % 1010,6 hPa 0,0 l/m 0 min 0 min 0,0 UV-I 0 W/m 10,5 km/h (2 Bft)
13.07.2014 03:10 16,4 C 15,6 C 97 % 1010,5 hPa 0,0 l/m 0 min 0 min 0,0 UV-I 0 W/m 8,4 km/h (2 Bft)
13.07.2014 03:12 16,4 C 15,6 C 97 % 1010,6 hPa 0,0 l/m 0 min 0 min 0,0 UV-I 0 W/m 8,4 km/h (2 Bft)
13.07.2014 03:14 16,4 C 15,6 C 97 % 1010,6 hPa 0,0 l/m 0 min 0 min 0,0 UV-I 0 W/m 8,4 km/h (2 Bft)
13.07.2014 03:16 16,5 C 15,6 C 97 % 1010,6 hPa 0,0 l/m 0 min 0 min 0,0 UV-I 0 W/m 8,4 km/h (2 Bft)
13.07.2014 03:18 16,5 C 15,6 C 97 % 1010,6 hPa 0,0 l/m 0 min 0 min 0,0 UV-I 0 W/m 10,5 km/h (2 Bft)
13.07.2014 03:20 16,5 C 15,6 C 97 % 1010,7 hPa 0,0 l/m 0 min 0 min 0,0 UV-I 0 W/m 8,4 km/h (2 Bft)
13.07.2014 03:22 16,5 C 15,6 C 97 % 1010,6 hPa 0,0 l/m 0 min 0 min 0,0 UV-I 0 W/m 6,3 km/h (2 Bft)
13.07.2014 03:24 16,6 C 15,6 C 97 % 1010,6 hPa 0,0 l/m 0 min 0 min 0,0 UV-I 0 W/m 6,3 km/h (2 Bft)
13.07.2014 03:26 16,6 C 15,6 C 97 % 1010,6 hPa 0,0 l/m 0 min 0 min 0,0 UV-I 0 W/m 6,3 km/h (2 Bft)
13.07.2014 03:28 16,6 C 15,6 C 97 % 1010,5 hPa 0,0 l/m 0 min 0 min 0,0 UV-I 0 W/m 10,5 km/h (2 Bft)
13.07.2014 03:30 16,6 C 15,6 C 97 % 1010,5 hPa 0,0 l/m 0 min 0 min 0,0 UV-I 0 W/m 6,3 km/h (2 Bft)
13.07.2014 03:32 16,6 C 15,6 C 97 % 1010,5 hPa 0,0 l/m 0 min 0 min 0,0 UV-I 0 W/m 10,5 km/h (2 Bft)
13.07.2014 03:34 16,6 C 15,6 C 97 % 1010,5 hPa 0,0 l/m 0 min 0 min 0,0 UV-I 0 W/m 6,3 km/h (2 Bft)
13.07.2014 03:36 16,6 C 15,6 C 97 % 1010,5 hPa 0,0 l/m 0 min 0 min 0,0 UV-I 0 W/m 8,4 km/h (2 Bft)
13.07.2014 03:38 16,6 C 15,6 C 97 % 1010,5 hPa 0,0 l/m 0 min 0 min 0,0 UV-I 0 W/m 6,3 km/h (2 Bft)
13.07.2014 03:40 16,6 C 15,6 C 97 % 1010,5 hPa 0,0 l/m 0 min 0 min 0,0 UV-I 0 W/m 6,3 km/h (2 Bft)
13.07.2014 03:42 16,6 C 15,6 C 97 % 1010,5 hPa 0,0 l/m 0 min 0 min 0,0 UV-I 0 W/m 2,1 km/h (1 Bft)
13.07.2014 03:44 16,6 C 15,6 C 97 % 1010,5 hPa 0,0 l/m 0 min 0 min 0,0 UV-I 0 W/m 0,0 km/h (0 Bft)
13.07.2014 03:46 16,6 C 15,6 C 97 % 1010,5 hPa 0,0 l/m 0 min 0 min 0,0 UV-I 0 W/m 0,0 km/h (0 Bft)
13.07.2014 03:48 16,6 C 15,6 C 97 % 1010,4 hPa 0,0 l/m 0 min 0 min 0,0 UV-I 0 W/m 4,2 km/h (1 Bft)
13.07.2014 03:50 16,6 C 15,6 C 97 % 1010,4 hPa 0,0 l/m 0 min 0 min 0,0 UV-I 0 W/m 6,3 km/h (2 Bft)
13.07.2014 03:52 16,6 C 15,6 C 97 % 1010,4 hPa 0,0 l/m 0 min 0 min 0,0 UV-I 0 W/m 6,3 km/h (2 Bft)
13.07.2014 03:54 16,7 C 15,6 C 97 % 1010,4 hPa 0,0 l/m 0 min 0 min 0,0 UV-I 0 W/m 6,3 km/h (2 Bft)
13.07.2014 03:56 16,7 C 15,6 C 97 % 1010,4 hPa 0,0 l/m 0 min 0 min 0,0 UV-I 0 W/m 2,1 km/h (1 Bft)
13.07.2014 03:58 16,6 C 15,6 C 97 % 1010,4 hPa 0,0 l/m 0 min 0 min 0,0 UV-I 0 W/m 0,0 km/h (0 Bft)
13.07.2014 04:00 16,7 C 15,6 C 97 % 1010,3 hPa 0,0 l/m 0 min 0 min 0,0 UV-I 0 W/m 0,0 km/h (0 Bft)
13.07.2014 04:05 16,6 C 15,6 C 97 % 1010,2 hPa 0,0 l/m 0 min 0 min 0,0 UV-I 0 W/m 0,0 km/h (0 Bft)
13.07.2014 04:06 16,7 C 15,6 C 97 % 1010,2 hPa 0,0 l/m 0 min 0 min 0,0 UV-I 0 W/m 0,0 km/h (0 Bft)
13.07.2014 04:08 16,6 C 15,6 C 97 % 1010,2 hPa 0,0 l/m 0 min 0 min 0,0 UV-I 0 W/m 0,0 km/h (0 Bft)
13.07.2014 04:10 16,6 C 15,6 C 97 % 1010,3 hPa 0,0 l/m 0 min 0 min 0,0 UV-I 0 W/m 2,1 km/h (1 Bft)
13.07.2014 04:12 16,6 C 15,6 C 97 % 1010,2 hPa 0,0 l/m 0 min 0 min 0,0 UV-I 0 W/m 6,3 km/h (2 Bft)
13.07.2014 04:14 16,6 C 15,6 C 97 % 1010,2 hPa 0,0 l/m 0 min 0 min 0,0 UV-I 0 W/m 6,3 km/h (2 Bft)
13.07.2014 04:16 16,6 C 15,6 C 97 % 1010,1 hPa 0,0 l/m 0 min 0 min 0,0 UV-I 0 W/m 10,5 km/h (2 Bft)
13.07.2014 04:18 16,6 C 15,6 C 97 % 1010,1 hPa 0,0 l/m 0 min 0 min 0,0 UV-I 0 W/m 10,5 km/h (2 Bft)
13.07.2014 04:20 16,6 C 15,6 C 97 % 1010,1 hPa 0,0 l/m 0 min 0 min 0,0 UV-I 0 W/m 8,4 km/h (2 Bft)
13.07.2014 04:22 16,6 C 15,6 C 97 % 1010,0 hPa 0,0 l/m 0 min 0 min 0,0 UV-I 0 W/m 8,4 km/h (2 Bft)
13.07.2014 04:24 16,6 C 15,6 C 97 % 1010,0 hPa 0,0 l/m 0 min 0 min 0,0 UV-I 0 W/m 6,3 km/h (2 Bft)
13.07.2014 04:26 16,6 C 15,6 C 97 % 1010,0 hPa 0,0 l/m 0 min 0 min 0,0 UV-I 0 W/m 0,0 km/h (0 Bft)
13.07.2014 04:28 16,6 C 15,6 C 97 % 1010,0 hPa 0,0 l/m 0 min 0 min 0,0 UV-I 0 W/m 2,1 km/h (1 Bft)
13.07.2014 04:30 16,6 C 15,6 C 97 % 1010,0 hPa 0,0 l/m 0 min 0 min 0,0 UV-I 0 W/m 0,0 km/h (0 Bft)
13.07.2014 04:32 16,6 C 15,6 C 97 % 1009,9 hPa 0,0 l/m 0 min 0 min 0,0 UV-I 0 W/m 6,3 km/h (2 Bft)
13.07.2014 04:34 16,6 C 15,6 C 97 % 1010,0 hPa 0,0 l/m 0 min 0 min 0,0 UV-I 0 W/m 10,5 km/h (2 Bft)
13.07.2014 04:36 16,6 C 15,6 C 97 % 1009,9 hPa 0,0 l/m 0 min 0 min 0,0 UV-I 0 W/m 6,3 km/h (2 Bft)
13.07.2014 04:38 16,6 C 15,6 C 97 % 1009,9 hPa 0,0 l/m 0 min 0 min 0,0 UV-I 0 W/m 8,4 km/h (2 Bft)
13.07.2014 04:40 16,6 C 15,6 C 97 % 1010,0 hPa 0,0 l/m 0 min 0 min 0,0 UV-I 0 W/m 8,4 km/h (2 Bft)
13.07.2014 04:42 16,6 C 15,6 C 97 % 1010,0 hPa 0,0 l/m 0 min 0 min 0,0 UV-I 0 W/m 8,4 km/h (2 Bft)
13.07.2014 04:44 16,6 C 15,6 C 97 % 1009,9 hPa 0,0 l/m 0 min 0 min 0,0 UV-I 0 W/m 6,3 km/h (2 Bft)
13.07.2014 04:46 16,6 C 15,6 C 97 % 1009,9 hPa 0,0 l/m 0 min 0 min 0,0 UV-I 0 W/m 10,5 km/h (2 Bft)
13.07.2014 04:48 16,6 C 15,6 C 97 % 1009,9 hPa 0,0 l/m 0 min 0 min 0,0 UV-I 0 W/m 10,5 km/h (2 Bft)
13.07.2014 04:50 16,6 C 15,6 C 97 % 1009,9 hPa 0,0 l/m 0 min 0 min 0,0 UV-I 0 W/m 2,1 km/h (1 Bft)
13.07.2014 04:52 16,6 C 15,6 C 97 % 1009,9 hPa 0,0 l/m 0 min 0 min 0,0 UV-I 0 W/m 8,4 km/h (2 Bft)
13.07.2014 04:54 16,6 C 15,6 C 97 % 1009,9 hPa 0,0 l/m 0 min 0 min 0,0 UV-I 0 W/m 6,3 km/h (2 Bft)
13.07.2014 04:56 16,6 C 15,6 C 97 % 1009,9 hPa 0,0 l/m 0 min 0 min 0,0 UV-I 0 W/m 6,3 km/h (2 Bft)
13.07.2014 04:58 16,6 C 15,6 C 97 % 1009,9 hPa 0,0 l/m 0 min 0 min 0,0 UV-I 0 W/m 2,1 km/h (1 Bft)
13.07.2014 05:00 16,6 C 15,6 C 97 % 1009,8 hPa 0,0 l/m 0 min 0 min 0,0 UV-I 0 W/m 2,1 km/h (1 Bft)
13.07.2014 05:02 16,6 C 15,6 C 97 % 1009,9 hPa 0,0 l/m 0 min 0 min 0,0 UV-I 0 W/m 0,0 km/h (0 Bft)
13.07.2014 05:04 16,6 C 15,6 C 97 % 1009,9 hPa 0,0 l/m 0 min 0 min 0,0 UV-I 0 W/m 6,3 km/h (2 Bft)
13.07.2014 05:06 16,6 C 15,6 C 97 % 1009,9 hPa 0,0 l/m 0 min 0 min 0,0 UV-I 0 W/m 0,0 km/h (0 Bft)
13.07.2014 05:08 16,6 C 15,6 C 97 % 1009,8 hPa 0,0 l/m 0 min 0 min 0,0 UV-I 0 W/m 6,3 km/h (2 Bft)
13.07.2014 05:10 16,6 C 15,6 C 97 % 1009,8 hPa 0,0 l/m 0 min 0 min 0,0 UV-I 0 W/m 8,4 km/h (2 Bft)
13.07.2014 05:12 16,6 C 15,6 C 97 % 1009,8 hPa 0,0 l/m 0 min 0 min 0,0 UV-I 0 W/m 6,3 km/h (2 Bft)
13.07.2014 05:14 16,6 C 15,6 C 97 % 1009,8 hPa 0,0 l/m 0 min 0 min 0,0 UV-I 0 W/m 0,0 km/h (0 Bft)
13.07.2014 05:16 16,6 C 15,6 C 97 % 1009,8 hPa 0,0 l/m 0 min 0 min 0,0 UV-I 0 W/m 2,1 km/h (1 Bft)
13.07.2014 05:18 16,7 C 15,6 C 97 % 1009,8 hPa 0,0 l/m 0 min 0 min 0,0 UV-I 0 W/m 4,2 km/h (1 Bft)
13.07.2014 05:20 16,7 C 15,6 C 97 % 1009,8 hPa 0,0 l/m 0 min 0 min 0,0 UV-I 0 W/m 6,3 km/h (2 Bft)
13.07.2014 05:22 16,7 C 15,6 C 97 % 1009,8 hPa 0,0 l/m 0 min 0 min 0,0 UV-I 0 W/m 0,0 km/h (0 Bft)
13.07.2014 05:24 16,7 C 15,6 C 97 % 1009,8 hPa 0,0 l/m 0 min 0 min 0,0 UV-I 0 W/m 2,1 km/h (1 Bft)
13.07.2014 05:26 16,7 C 15,6 C 97 % 1009,8 hPa 0,0 l/m 0 min 0 min 0,0 UV-I 0 W/m 8,4 km/h (2 Bft)
13.07.2014 05:28 16,7 C 15,6 C 97 % 1009,8 hPa 0,0 l/m 0 min 0 min 0,0 UV-I 0 W/m 0,0 km/h (0 Bft)
13.07.2014 05:30 16,7 C 15,6 C 97 % 1009,8 hPa 0,0 l/m 0 min 0 min 0,0 UV-I 0 W/m 0,0 km/h (0 Bft)
13.07.2014 05:32 16,7 C 15,6 C 97 % 1009,8 hPa 0,0 l/m 0 min 0 min 0,0 UV-I 0 W/m 2,1 km/h (1 Bft)
13.07.2014 05:34 16,7 C 15,6 C 97 % 1009,8 hPa 0,0 l/m 0 min 0 min 0,0 UV-I 0 W/m 0,0 km/h (0 Bft)
13.07.2014 05:36 16,7 C 15,6 C 97 % 1009,8 hPa 0,0 l/m 0 min 0 min 0,0 UV-I 0 W/m 0,0 km/h (0 Bft)
13.07.2014 05:38 16,7 C 15,6 C 97 % 1009,7 hPa 0,0 l/m 0 min 0 min 0,0 UV-I 0 W/m 0,0 km/h (0 Bft)
13.07.2014 05:40 16,7 C 15,6 C 97 % 1009,8 hPa 0,0 l/m 0 min 0 min 0,0 UV-I 0 W/m 0,0 km/h (0 Bft)
13.07.2014 05:42 16,7 C 15,6 C 97 % 1009,8 hPa 0,0 l/m 0 min 0 min 0,0 UV-I 0 W/m 2,1 km/h (1 Bft)
13.07.2014 05:44 16,7 C 15,6 C 97 % 1009,7 hPa 0,0 l/m 0 min 0 min 0,0 UV-I 0 W/m 0,0 km/h (0 Bft)
13.07.2014 05:46 16,7 C 15,6 C 97 % 1009,8 hPa 0,0 l/m 0 min 0 min 0,0 UV-I 0 W/m 0,0 km/h (0 Bft)
13.07.2014 05:48 16,7 C 15,6 C 97 % 1009,8 hPa 0,0 l/m 0 min 0 min 0,0 UV-I 5 W/m 6,3 km/h (2 Bft)
13.07.2014 05:50 16,7 C 15,6 C 97 % 1009,7 hPa 0,0 l/m 0 min 0 min 0,0 UV-I 5 W/m 4,2 km/h (1 Bft)
13.07.2014 05:52 16,7 C 15,6 C 97 % 1009,6 hPa 0,0 l/m 0 min 0 min 0,0 UV-I 7 W/m 2,1 km/h (1 Bft)
13.07.2014 05:54 16,6 C 15,6 C 97 % 1009,5 hPa 0,0 l/m 0 min 0 min 0,0 UV-I 7 W/m 4,2 km/h (1 Bft)
13.07.2014 05:56 16,7 C 15,6 C 97 % 1009,7 hPa 0,0 l/m 0 min 0 min 0,0 UV-I 7 W/m 6,3 km/h (2 Bft)
13.07.2014 05:58 16,7 C 15,6 C 97 % 1009,7 hPa 0,0 l/m 0 min 0 min 0,0 UV-I 9 W/m 6,3 km/h (2 Bft)
13.07.2014 06:00 16,7 C 15,6 C 97 % 1009,7 hPa 0,0 l/m 0 min 0 min 0,0 UV-I 11 W/m 0,0 km/h (0 Bft)
13.07.2014 06:02 16,7 C 15,6 C 97 % 1009,6 hPa 0,0 l/m 0 min 0 min 0,0 UV-I 12 W/m 0,0 km/h (0 Bft)
13.07.2014 06:06 16,7 C 15,6 C 97 % 1009,6 hPa 0,0 l/m 0 min 0 min 0,0 UV-I 14 W/m 6,3 km/h (2 Bft)
13.07.2014 06:08 16,7 C 15,6 C 97 % 1009,5 hPa 0,0 l/m 0 min 0 min 0,0 UV-I 14 W/m 8,4 km/h (2 Bft)
13.07.2014 06:10 16,7 C 15,6 C 97 % 1009,4 hPa 0,0 l/m 0 min 0 min 0,0 UV-I 19 W/m 8,4 km/h (2 Bft)
13.07.2014 06:12 16,7 C 15,6 C 97 % 1009,4 hPa 0,0 l/m 0 min 0 min 0,0 UV-I 21 W/m 10,5 km/h (2 Bft)
13.07.2014 06:14 16,7 C 15,6 C 97 % 1009,4 hPa 0,0 l/m 0 min 0 min 0,0 UV-I 25 W/m 4,2 km/h (1 Bft)
13.07.2014 06:16 16,7 C 15,6 C 96 % 1009,5 hPa 0,0 l/m 0 min 0 min 0,0 UV-I 28 W/m 10,5 km/h (2 Bft)
13.07.2014 06:18 16,7 C 16,1 C 96 % 1009,3 hPa 0,0 l/m 0 min 0 min 0,0 UV-I 30 W/m 2,1 km/h (1 Bft)
13.07.2014 06:20 16,7 C 16,1 C 96 % 1009,4 hPa 0,0 l/m 0 min 0 min 0,0 UV-I 32 W/m 2,1 km/h (1 Bft)
13.07.2014 06:22 16,8 C 16,1 C 96 % 1009,3 hPa 0,0 l/m 0 min 0 min 0,0 UV-I 32 W/m 0,0 km/h (0 Bft)
13.07.2014 06:24 16,8 C 16,1 C 96 % 1009,3 hPa 0,0 l/m 0 min 0 min 0,0 UV-I 30 W/m 2,1 km/h (1 Bft)
13.07.2014 06:26 16,8 C 16,1 C 96 % 1009,3 hPa 0,0 l/m 0 min 0 min 0,0 UV-I 30 W/m 2,1 km/h (1 Bft)
13.07.2014 06:28 16,8 C 16,1 C 96 % 1009,3 hPa 0,0 l/m 0 min 0 min 0,0 UV-I 32 W/m 2,1 km/h (1 Bft)
13.07.2014 06:30 16,8 C 16,1 C 96 % 1009,3 hPa 0,0 l/m 0 min 0 min 0,0 UV-I 33 W/m 0,0 km/h (0 Bft)
13.07.2014 06:32 16,9 C 16,1 C 96 % 1009,3 hPa 0,0 l/m 0 min 0 min 0,0 UV-I 39 W/m 0,0 km/h (0 Bft)
13.07.2014 06:34 16,9 C 16,1 C 96 % 1009,3 hPa 0,0 l/m 0 min 0 min 0,0 UV-I 42 W/m 0,0 km/h (0 Bft)
13.07.2014 06:36 16,9 C 16,1 C 96 % 1009,3 hPa 0,0 l/m 0 min 0 min 0,0 UV-I 44 W/m 4,2 km/h (1 Bft)
13.07.2014 06:38 16,9 C 16,1 C 96 % 1009,2 hPa 0,0 l/m 0 min 0 min 0,0 UV-I 46 W/m 10,5 km/h (2 Bft)
13.07.2014 06:40 16,9 C 16,1 C 96 % 1009,2 hPa 0,0 l/m 0 min 0 min 0,0 UV-I 47 W/m 6,3 km/h (2 Bft)
13.07.2014 06:42 16,9 C 16,1 C 96 % 1009,2 hPa 0,0 l/m 0 min 0 min 0,0 UV-I 47 W/m 0,0 km/h (0 Bft)
13.07.2014 06:44 16,9 C 16,1 C 96 % 1009,2 hPa 0,0 l/m 0 min 0 min 0,0 UV-I 51 W/m 2,1 km/h (1 Bft)
13.07.2014 06:46 17,0 C 16,1 C 96 % 1009,2 hPa 0,0 l/m 0 min 0 min 0,0 UV-I 60 W/m 4,2 km/h (1 Bft)
13.07.2014 06:48 17,0 C 16,1 C 96 % 1009,2 hPa 0,0 l/m 0 min 0 min 0,0 UV-I 67 W/m 8,4 km/h (2 Bft)
13.07.2014 06:50 16,9 C 16,1 C 96 % 1009,1 hPa 0,0 l/m 0 min 0 min 0,0 UV-I 76 W/m 6,3 km/h (2 Bft)
13.07.2014 06:52 17,0 C 16,1 C 96 % 1009,1 hPa 0,0 l/m 0 min 0 min 0,0 UV-I 81 W/m 8,4 km/h (2 Bft)
13.07.2014 06:54 17,0 C 16,1 C 96 % 1009,1 hPa 0,0 l/m 2 min 0 min 0,0 UV-I 88 W/m 0,0 km/h (0 Bft)
13.07.2014 06:56 17,1 C 16,1 C 96 % 1009,1 hPa 0,0 l/m 2 min 0 min 0,0 UV-I 98 W/m 8,4 km/h (2 Bft)
13.07.2014 06:58 17,1 C 16,7 C 96 % 1009,1 hPa 0,0 l/m 2 min 0 min 0,0 UV-I 107 W/m 10,5 km/h (2 Bft)
13.07.2014 07:00 17,1 C 16,7 C 96 % 1009,1 hPa 0,0 l/m 2 min 0 min 0,0 UV-I 95 W/m 6,3 km/h (2 Bft)
13.07.2014 07:02 17,1 C 16,7 C 96 % 1009,2 hPa 0,0 l/m 0 min 0 min 0,0 UV-I 77 W/m 12,6 km/h (3 Bft)
13.07.2014 07:04 17,1 C 16,7 C 95 % 1009,2 hPa 0,0 l/m 0 min 0 min 0,0 UV-I 76 W/m 10,5 km/h (2 Bft)
13.07.2014 07:06 17,1 C 16,7 C 95 % 1009,2 hPa 0,0 l/m 0 min 0 min 0,0 UV-I 79 W/m 8,4 km/h (2 Bft)
13.07.2014 07:08 17,1 C 16,7 C 95 % 1009,2 hPa 0,0 l/m 0 min 0 min 0,0 UV-I 84 W/m 4,2 km/h (1 Bft)
13.07.2014 07:10 17,2 C 16,7 C 95 % 1009,1 hPa 0,0 l/m 0 min 0 min 0,0 UV-I 77 W/m 8,4 km/h (2 Bft)
13.07.2014 07:12 17,2 C 16,7 C 95 % 1009,1 hPa 0,0 l/m 0 min 0 min 0,0 UV-I 79 W/m 6,3 km/h (2 Bft)
13.07.2014 07:14 17,2 C 16,7 C 95 % 1009,1 hPa 0,0 l/m 0 min 0 min 0,0 UV-I 76 W/m 2,1 km/h (1 Bft)
13.07.2014 07:16 17,2 C 16,7 C 95 % 1009,1 hPa 0,0 l/m 0 min 0 min 0,0 UV-I 76 W/m 8,4 km/h (2 Bft)
13.07.2014 07:18 17,2 C 16,7 C 94 % 1009,1 hPa 0,0 l/m 0 min 0 min 0,0 UV-I 77 W/m 6,3 km/h (2 Bft)
13.07.2014 07:20 17,2 C 16,7 C 94 % 1009,0 hPa 0,0 l/m 0 min 0 min 0,0 UV-I 74 W/m 0,0 km/h (0 Bft)
13.07.2014 07:22 17,3 C 16,7 C 94 % 1009,0 hPa 0,0 l/m 0 min 0 min 0,0 UV-I 69 W/m 6,3 km/h (2 Bft)
13.07.2014 07:24 17,3 C 16,7 C 94 % 1009,1 hPa 0,0 l/m 0 min 0 min 0,0 UV-I 77 W/m 8,4 km/h (2 Bft)
13.07.2014 07:26 17,3 C 16,7 C 94 % 1009,0 hPa 0,0 l/m 0 min 0 min 0,0 UV-I 97 W/m 4,2 km/h (1 Bft)
13.07.2014 07:28 17,3 C 16,7 C 94 % 1009,0 hPa 0,0 l/m 0 min 0 min 0,0 UV-I 90 W/m 4,2 km/h (1 Bft)
13.07.2014 07:30 17,3 C 16,7 C 94 % 1009,0 hPa 0,0 l/m 0 min 0 min 0,0 UV-I 76 W/m 8,4 km/h (2 Bft)
13.07.2014 07:32 17,3 C 16,7 C 94 % 1009,0 hPa 0,0 l/m 0 min 0 min 0,0 UV-I 79 W/m 10,5 km/h (2 Bft)
13.07.2014 07:34 17,3 C 16,7 C 93 % 1009,0 hPa 0,0 l/m 0 min 0 min 0,0 UV-I 74 W/m 10,5 km/h (2 Bft)
13.07.2014 07:36 17,3 C 16,7 C 93 % 1009,0 hPa 0,0 l/m 0 min 0 min 0,0 UV-I 72 W/m 10,5 km/h (2 Bft)
13.07.2014 07:38 17,3 C 16,7 C 93 % 1009,0 hPa 0,0 l/m 0 min 0 min 0,0 UV-I 91 W/m 8,4 km/h (2 Bft)
13.07.2014 07:40 17,3 C 16,7 C 93 % 1009,0 hPa 0,0 l/m 0 min 0 min 0,0 UV-I 102 W/m 0,0 km/h (0 Bft)
13.07.2014 07:42 17,3 C 16,7 C 93 % 1009,0 hPa 0,0 l/m 0 min 0 min 0,0 UV-I 107 W/m 12,6 km/h (3 Bft)
13.07.2014 07:44 17,4 C 16,7 C 93 % 1008,9 hPa 0,0 l/m 0 min 0 min 0,0 UV-I 104 W/m 6,3 km/h (2 Bft)
13.07.2014 07:46 17,4 C 16,7 C 93 % 1009,0 hPa 0,0 l/m 0 min 0 min 0,0 UV-I 104 W/m 12,6 km/h (3 Bft)
13.07.2014 07:48 17,4 C 16,7 C 93 % 1008,9 hPa 0,0 l/m 0 min 0 min 0,0 UV-I 98 W/m 12,6 km/h (3 Bft)
13.07.2014 07:50 17,4 C 16,7 C 93 % 1008,9 hPa 0,0 l/m 0 min 0 min 0,0 UV-I 88 W/m 8,4 km/h (2 Bft)
13.07.2014 07:52 17,4 C 16,7 C 93 % 1008,8 hPa 0,0 l/m 0 min 0 min 0,0 UV-I 90 W/m 10,5 km/h (2 Bft)
13.07.2014 07:54 17,4 C 16,7 C 93 % 1008,8 hPa 0,0 l/m 0 min 0 min 0,0 UV-I 88 W/m 14,6 km/h (3 Bft)
13.07.2014 07:56 17,4 C 16,7 C 93 % 1008,9 hPa 0,0 l/m 0 min 0 min 0,0 UV-I 58 W/m 10,5 km/h (2 Bft)
13.07.2014 07:58 17,4 C 16,7 C 93 % 1008,9 hPa 0,0 l/m 0 min 0 min 0,0 UV-I 44 W/m 10,5 km/h (2 Bft)
13.07.2014 08:00 17,4 C 16,7 C 92 % 1008,9 hPa 0,0 l/m 0 min 0 min 0,0 UV-I 42 W/m 12,6 km/h (3 Bft)
13.07.2014 08:02 17,4 C 16,7 C 93 % 1008,9 hPa 0,0 l/m 0 min 0 min 0,0 UV-I 51 W/m 12,6 km/h (3 Bft)
13.07.2014 08:04 17,3 C 16,7 C 93 % 1008,9 hPa 0,0 l/m 0 min 0 min 0,0 UV-I 62 W/m 10,5 km/h (2 Bft)
13.07.2014 08:06 17,3 C 16,7 C 93 % 1008,9 hPa 0,0 l/m 0 min 0 min 0,0 UV-I 65 W/m 6,3 km/h (2 Bft)
13.07.2014 08:08 17,4 C 16,7 C 93 % 1008,8 hPa 0,0 l/m 0 min 0 min 0,0 UV-I 76 W/m 0,0 km/h (0 Bft)
13.07.2014 08:10 17,4 C 16,7 C 93 % 1008,8 hPa 0,0 l/m 0 min 0 min 0,0 UV-I 83 W/m 8,4 km/h (2 Bft)
13.07.2014 08:12 17,4 C 16,7 C 93 % 1008,7 hPa 0,0 l/m 0 min 0 min 0,0 UV-I 86 W/m 10,5 km/h (2 Bft)
13.07.2014 08:14 17,4 C 16,7 C 93 % 1008,7 hPa 0,0 l/m 0 min 0 min 0,0 UV-I 104 W/m 6,3 km/h (2 Bft)
13.07.2014 08:16 17,4 C 17,2 C 93 % 1008,6 hPa 0,0 l/m 0 min 0 min 0,0 UV-I 142 W/m 2,1 km/h (1 Bft)
13.07.2014 08:18 17,4 C 17,2 C 93 % 1008,6 hPa 0,0 l/m 0 min 0 min 0,0 UV-I 142 W/m 6,3 km/h (2 Bft)
13.07.2014 08:20 17,5 C 17,2 C 93 % 1008,6 hPa 0,0 l/m 0 min 0 min 0,0 UV-I 162 W/m 10,5 km/h (2 Bft)
13.07.2014 08:22 17,6 C 17,2 C 93 % 1008,5 hPa 0,0 l/m 0 min 0 min 0,0 UV-I 169 W/m 8,4 km/h (2 Bft)
13.07.2014 08:24 17,7 C 17,2 C 93 % 1008,5 hPa 0,0 l/m 0 min 0 min 0,0 UV-I 127 W/m 12,6 km/h (3 Bft)
13.07.2014 08:26 17,7 C 17,2 C 93 % 1008,5 hPa 0,0 l/m 0 min 0 min 0,0 UV-I 130 W/m 10,5 km/h (2 Bft)
13.07.2014 08:28 17,7 C 17,2 C 93 % 1008,5 hPa 0,0 l/m 0 min 0 min 0,0 UV-I 109 W/m 4,2 km/h (1 Bft)
13.07.2014 08:30 17,8 C 17,2 C 93 % 1008,5 hPa 0,0 l/m 0 min 0 min 0,0 UV-I 83 W/m 10,5 km/h (2 Bft)
13.07.2014 08:32 17,7 C 17,2 C 92 % 1008,5 hPa 0,0 l/m 0 min 0 min 0,0 UV-I 84 W/m 14,6 km/h (3 Bft)
13.07.2014 08:34 17,7 C 17,2 C 92 % 1008,5 hPa 0,0 l/m 0 min 0 min 0,0 UV-I 93 W/m 23,0 km/h (4 Bft)
13.07.2014 08:36 17,6 C 17,2 C 92 % 1008,5 hPa 0,0 l/m 0 min 0 min 0,0 UV-I 84 W/m 14,6 km/h (3 Bft)
13.07.2014 08:38 17,6 C 16,7 C 92 % 1008,5 hPa 0,0 l/m 0 min 0 min 0,0 UV-I 69 W/m 12,6 km/h (3 Bft)
13.07.2014 08:40 17,6 C 16,7 C 92 % 1008,5 hPa 0,0 l/m 0 min 0 min 0,0 UV-I 72 W/m 14,6 km/h (3 Bft)
13.07.2014 08:42 17,5 C 16,7 C 92 % 1008,5 hPa 0,0 l/m 0 min 0 min 0,0 UV-I 83 W/m 10,5 km/h (2 Bft)
13.07.2014 08:44 17,6 C 17,2 C 92 % 1008,5 hPa 0,0 l/m 0 min 0 min 0,0 UV-I 104 W/m 8,4 km/h (2 Bft)
13.07.2014 08:46 17,6 C 17,2 C 93 % 1008,5 hPa 0,0 l/m 0 min 0 min 0,0 UV-I 107 W/m 8,4 km/h (2 Bft)
13.07.2014 08:48 17,6 C 17,2 C 92 % 1008,5 hPa 0,0 l/m 0 min 0 min 0,0 UV-I 95 W/m 10,5 km/h (2 Bft)
13.07.2014 08:50 17,6 C 17,2 C 93 % 1008,5 hPa 0,0 l/m 0 min 0 min 0,0 UV-I 107 W/m 10,5 km/h (2 Bft)
13.07.2014 08:52 17,6 C 17,2 C 93 % 1008,5 hPa 0,0 l/m 0 min 0 min 0,0 UV-I 121 W/m 16,7 km/h (3 Bft)
13.07.2014 08:54 17,5 C 17,2 C 93 % 1008,5 hPa 0,0 l/m 0 min 0 min 0,0 UV-I 142 W/m 12,6 km/h (3 Bft)
13.07.2014 08:56 17,6 C 17,2 C 93 % 1008,5 hPa 0,0 l/m 0 min 0 min 0,0 UV-I 111 W/m 16,7 km/h (3 Bft)
13.07.2014 08:58 17,6 C 17,2 C 93 % 1008,5 hPa 0,0 l/m 0 min 0 min 0,0 UV-I 86 W/m 16,7 km/h (3 Bft)
13.07.2014 09:00 17,6 C 17,2 C 93 % 1008,5 hPa 0,0 l/m 0 min 0 min 0,0 UV-I 63 W/m 12,6 km/h (3 Bft)
13.07.2014 09:02 17,6 C 17,2 C 93 % 1008,5 hPa 0,0 l/m 0 min 0 min 0,0 UV-I 70 W/m 14,6 km/h (3 Bft)
13.07.2014 09:04 17,6 C 17,2 C 93 % 1008,5 hPa 0,0 l/m 0 min 0 min 0,0 UV-I 76 W/m 16,7 km/h (3 Bft)
13.07.2014 09:06 17,6 C 16,7 C 93 % 1008,5 hPa 0,0 l/m 0 min 0 min 0,0 UV-I 47 W/m 20,9 km/h (4 Bft)
13.07.2014 09:08 17,5 C 16,7 C 93 % 1008,6 hPa 0,0 l/m 0 min 0 min 0,0 UV-I 42 W/m 16,7 km/h (3 Bft)
13.07.2014 09:10 17,4 C 16,7 C 93 % 1008,6 hPa 0,0 l/m 0 min 0 min 0,0 UV-I 40 W/m 23,0 km/h (4 Bft)
13.07.2014 09:12 17,4 C 16,7 C 93 % 1008,6 hPa 0,0 l/m 0 min 0 min 0,0 UV-I 37 W/m 16,7 km/h (3 Bft)
13.07.2014 09:14 17,4 C 16,7 C 93 % 1008,6 hPa 0,0 l/m 0 min 0 min 0,0 UV-I 35 W/m 16,7 km/h (3 Bft)
13.07.2014 09:16 17,3 C 16,7 C 93 % 1008,6 hPa 0,0 l/m 0 min 0 min 0,0 UV-I 30 W/m 14,6 km/h (3 Bft)
13.07.2014 09:18 17,3 C 16,7 C 93 % 1008,7 hPa 0,0 l/m 0 min 0 min 0,0 UV-I 28 W/m 18,8 km/h (3 Bft)
13.07.2014 09:20 17,3 C 16,7 C 93 % 1008,7 hPa 0,0 l/m 0 min 0 min 0,0 UV-I 26 W/m 14,6 km/h (3 Bft)
13.07.2014 09:22 17,3 C 16,1 C 93 % 1008,7 hPa 0,0 l/m 0 min 0 min 0,0 UV-I 26 W/m 12,6 km/h (3 Bft)
13.07.2014 09:24 17,2 C 16,1 C 94 % 1008,7 hPa 0,0 l/m 0 min 0 min 0,0 UV-I 33 W/m 16,7 km/h (3 Bft)
13.07.2014 09:26 17,2 C 16,1 C 94 % 1008,7 hPa 0,0 l/m 0 min 0 min 0,0 UV-I 32 W/m 16,7 km/h (3 Bft)
13.07.2014 09:28 17,1 C 16,1 C 94 % 1008,7 hPa 0,0 l/m 0 min 0 min 0,0 UV-I 37 W/m 14,6 km/h (3 Bft)
13.07.2014 09:30 17,1 C 16,1 C 94 % 1008,7 hPa 0,0 l/m 0 min 0 min 0,0 UV-I 32 W/m 16,7 km/h (3 Bft)
13.07.2014 09:32 17,0 C 15,6 C 94 % 1008,7 hPa 0,0 l/m 0 min 0 min 0,0 UV-I 40 W/m 14,6 km/h (3 Bft)
13.07.2014 09:34 17,0 C 15,6 C 95 % 1008,7 hPa 0,0 l/m 0 min 2 min 0,0 UV-I 39 W/m 23,0 km/h (4 Bft)
13.07.2014 09:36 16,9 C 15,6 C 95 % 1008,7 hPa 0,0 l/m 0 min 0 min 0,0 UV-I 42 W/m 23,0 km/h (4 Bft)
13.07.2014 09:38 16,8 C 15,6 C 95 % 1008,6 hPa 0,0 l/m 0 min 0 min 0,0 UV-I 47 W/m 16,7 km/h (3 Bft)
13.07.2014 09:40 16,8 C 15,6 C 95 % 1008,6 hPa 0,0 l/m 0 min 0 min 0,0 UV-I 51 W/m 10,5 km/h (2 Bft)
13.07.2014 09:42 16,8 C 15,6 C 95 % 1008,6 hPa 0,0 l/m 0 min 0 min 0,0 UV-I 54 W/m 16,7 km/h (3 Bft)
13.07.2014 09:44 16,8 C 15,6 C 96 % 1008,6 hPa 0,0 l/m 0 min 0 min 0,0 UV-I 58 W/m 14,6 km/h (3 Bft)
13.07.2014 09:46 16,8 C 15,6 C 96 % 1008,6 hPa 0,0 l/m 0 min 0 min 0,0 UV-I 60 W/m 14,6 km/h (3 Bft)
13.07.2014 09:48 16,8 C 15,6 C 96 % 1008,7 hPa 0,0 l/m 0 min 0 min 0,0 UV-I 65 W/m 16,7 km/h (3 Bft)
13.07.2014 09:50 16,7 C 15,6 C 96 % 1008,6 hPa 0,0 l/m 0 min 0 min 0,0 UV-I 51 W/m 23,0 km/h (4 Bft)
13.07.2014 09:52 16,8 C 15,6 C 96 % 1008,6 hPa 0,0 l/m 0 min 0 min 0,0 UV-I 49 W/m 18,8 km/h (3 Bft)
13.07.2014 09:54 16,7 C 15,6 C 95 % 1008,6 hPa 0,0 l/m 0 min 0 min 0,0 UV-I 56 W/m 16,7 km/h (3 Bft)
13.07.2014 09:56 16,8 C 15,6 C 95 % 1008,5 hPa 0,0 l/m 0 min 0 min 0,0 UV-I 60 W/m 12,6 km/h (3 Bft)
13.07.2014 09:58 16,8 C 16,1 C 95 % 1008,6 hPa 0,0 l/m 0 min 0 min 0,0 UV-I 67 W/m 20,9 km/h (4 Bft)
13.07.2014 10:00 16,8 C 16,1 C 95 % 1008,6 hPa 0,0 l/m 0 min 0 min 0,0 UV-I 69 W/m 23,0 km/h (4 Bft)
13.07.2014 10:02 16,8 C 16,1 C 95 % 1008,6 hPa 0,0 l/m 0 min 0 min 0,0 UV-I 83 W/m 16,7 km/h (3 Bft)
13.07.2014 10:04 16,8 C 16,1 C 95 % 1008,6 hPa 0,0 l/m 0 min 0 min 0,0 UV-I 93 W/m 16,7 km/h (3 Bft)
13.07.2014 10:06 16,9 C 16,1 C 95 % 1008,6 hPa 0,0 l/m 0 min 0 min 0,0 UV-I 105 W/m 20,9 km/h (4 Bft)
13.07.2014 10:08 16,9 C 16,1 C 94 % 1008,6 hPa 0,0 l/m 0 min 0 min 0,0 UV-I 111 W/m 18,8 km/h (3 Bft)
13.07.2014 10:10 16,9 C 16,7 C 94 % 1008,6 hPa 0,0 l/m 0 min 0 min 0,0 UV-I 134 W/m 14,6 km/h (3 Bft)
13.07.2014 10:12 17,0 C 16,7 C 94 % 1008,6 hPa 0,0 l/m 0 min 0 min 0,0 UV-I 171 W/m 12,6 km/h (3 Bft)
13.07.2014 10:14 17,1 C 16,7 C 94 % 1008,6 hPa 0,0 l/m 0 min 0 min 0,0 UV-I 193 W/m 14,6 km/h (3 Bft)
13.07.2014 10:16 17,2 C 16,7 C 94 % 1008,6 hPa 0,0 l/m 0 min 0 min 0,0 UV-I 149 W/m 16,7 km/h (3 Bft)
13.07.2014 10:18 17,2 C 17,2 C 93 % 1008,6 hPa 0,0 l/m 0 min 0 min 0,0 UV-I 169 W/m 12,6 km/h (3 Bft)
13.07.2014 10:20 17,3 C 17,2 C 93 % 1008,6 hPa 0,0 l/m 0 min 0 min 0,6 UV-I 209 W/m 18,8 km/h (3 Bft)
13.07.2014 10:22 17,4 C 17,2 C 93 % 1008,6 hPa 0,0 l/m 0 min 0 min 0,0 UV-I 137 W/m 14,6 km/h (3 Bft)
13.07.2014 10:24 17,6 C 17,2 C 93 % 1008,6 hPa 0,0 l/m 0 min 0 min 0,0 UV-I 121 W/m 10,5 km/h (2 Bft)
13.07.2014 10:26 17,5 C 17,2 C 92 % 1008,6 hPa 0,0 l/m 0 min 0 min 0,0 UV-I 113 W/m 14,6 km/h (3 Bft)
13.07.2014 10:28 17,5 C 17,2 C 92 % 1008,5 hPa 0,0 l/m 0 min 0 min 0,0 UV-I 123 W/m 12,6 km/h (3 Bft)
13.07.2014 10:30 17,5 C 17,2 C 92 % 1008,5 hPa 0,0 l/m 0 min 0 min 0,0 UV-I 137 W/m 14,6 km/h (3 Bft)
13.07.2014 10:32 17,5 C 17,2 C 91 % 1008,5 hPa 0,0 l/m 0 min 0 min 0,0 UV-I 146 W/m 14,6 km/h (3 Bft)
13.07.2014 10:34 17,6 C 17,2 C 92 % 1008,5 hPa 0,0 l/m 0 min 0 min 0,0 UV-I 144 W/m 16,7 km/h (3 Bft)
13.07.2014 10:36 17,6 C 17,2 C 92 % 1008,4 hPa 0,0 l/m 0 min 0 min 0,0 UV-I 165 W/m 25,1 km/h (4 Bft)
13.07.2014 10:38 17,6 C 17,2 C 91 % 1008,5 hPa 0,0 l/m 0 min 0 min 0,0 UV-I 185 W/m 18,8 km/h (3 Bft)
13.07.2014 10:40 17,7 C 17,2 C 91 % 1008,4 hPa 0,0 l/m 0 min 0 min 0,0 UV-I 160 W/m 18,8 km/h (3 Bft)
13.07.2014 10:42 17,7 C 17,2 C 91 % 1008,4 hPa 0,0 l/m 0 min 0 min 0,0 UV-I 171 W/m 12,6 km/h (3 Bft)
13.07.2014 10:44 17,8 C 17,8 C 91 % 1008,4 hPa 0,0 l/m 0 min 0 min 0,0 UV-I 162 W/m 14,6 km/h (3 Bft)
13.07.2014 10:46 17,8 C 17,2 C 91 % 1008,4 hPa 0,0 l/m 0 min 0 min 0,0 UV-I 120 W/m 18,8 km/h (3 Bft)
13.07.2014 10:48 17,8 C 17,2 C 90 % 1008,4 hPa 0,0 l/m 0 min 0 min 0,0 UV-I 113 W/m 23,0 km/h (4 Bft)
13.07.2014 10:50 17,8 C 17,2 C 90 % 1008,4 hPa 0,0 l/m 0 min 0 min 0,0 UV-I 114 W/m 25,1 km/h (4 Bft)
13.07.2014 10:52 17,7 C 17,2 C 90 % 1008,5 hPa 0,0 l/m 0 min 0 min 0,0 UV-I 120 W/m 23,0 km/h (4 Bft)
13.07.2014 10:54 17,7 C 17,2 C 90 % 1008,4 hPa 0,0 l/m 0 min 0 min 0,0 UV-I 107 W/m 14,6 km/h (3 Bft)
13.07.2014 10:56 17,7 C 17,2 C 90 % 1008,4 hPa 0,0 l/m 0 min 0 min 0,0 UV-I 90 W/m 16,7 km/h (3 Bft)
13.07.2014 10:58 17,6 C 17,2 C 90 % 1008,4 hPa 0,0 l/m 0 min 0 min 0,0 UV-I 95 W/m 10,5 km/h (2 Bft)
13.07.2014 11:00 17,6 C 17,2 C 90 % 1008,5 hPa 0,0 l/m 0 min 0 min 0,0 UV-I 100 W/m 20,9 km/h (4 Bft)
13.07.2014 11:02 17,6 C 16,7 C 90 % 1008,5 hPa 0,0 l/m 0 min 0 min 0,0 UV-I 127 W/m 16,7 km/h (3 Bft)
13.07.2014 11:04 17,6 C 17,2 C 91 % 1008,6 hPa 0,0 l/m 0 min 0 min 0,0 UV-I 127 W/m 14,6 km/h (3 Bft)
13.07.2014 11:06 17,6 C 17,2 C 91 % 1008,5 hPa 0,0 l/m 0 min 0 min 0,0 UV-I 125 W/m 23,0 km/h (4 Bft)
13.07.2014 11:08 17,5 C 17,2 C 91 % 1008,5 hPa 0,0 l/m 0 min 0 min 0,0 UV-I 95 W/m 27,2 km/h (4 Bft)
13.07.2014 11:10 17,6 C 17,2 C 91 % 1008,6 hPa 0,0 l/m 0 min 0 min 0,0 UV-I 90 W/m 12,6 km/h (3 Bft)
13.07.2014 11:12 17,5 C 17,2 C 91 % 1008,6 hPa 0,0 l/m 0 min 0 min 0,0 UV-I 111 W/m 16,7 km/h (3 Bft)
13.07.2014 11:14 17,5 C 17,2 C 91 % 1008,6 hPa 0,0 l/m 0 min 0 min 0,0 UV-I 165 W/m 20,9 km/h (4 Bft)
13.07.2014 11:16 17,5 C 17,2 C 91 % 1008,6 hPa 0,0 l/m 0 min 0 min 0,9 UV-I 221 W/m 20,9 km/h (4 Bft)
13.07.2014 11:18 17,6 C 17,2 C 91 % 1008,6 hPa 0,0 l/m 0 min 0 min 1,0 UV-I 223 W/m 23,0 km/h (4 Bft)
13.07.2014 11:20 17,6 C 17,2 C 91 % 1008,6 hPa 0,0 l/m 0 min 0 min 0,6 UV-I 179 W/m 16,7 km/h (3 Bft)
13.07.2014 11:22 17,7 C 17,2 C 91 % 1008,6 hPa 0,0 l/m 0 min 0 min 1,0 UV-I 209 W/m 18,8 km/h (3 Bft)
13.07.2014 11:24 17,7 C 17,8 C 90 % 1008,6 hPa 0,0 l/m 0 min 0 min 1,0 UV-I 216 W/m 23,0 km/h (4 Bft)
13.07.2014 11:26 17,8 C 17,8 C 91 % 1008,6 hPa 0,0 l/m 0 min 0 min 0,7 UV-I 162 W/m 18,8 km/h (3 Bft)
13.07.2014 11:28 17,8 C 17,2 C 90 % 1008,6 hPa 0,0 l/m 0 min 0 min 0,5 UV-I 163 W/m 23,0 km/h (4 Bft)
13.07.2014 11:30 17,8 C 17,2 C 90 % 1008,6 hPa 0,0 l/m 0 min 0 min 0,5 UV-I 167 W/m 18,8 km/h (3 Bft)
13.07.2014 11:32 17,8 C 17,2 C 90 % 1008,6 hPa 0,0 l/m 0 min 0 min 0,0 UV-I 130 W/m 23,0 km/h (4 Bft)
13.07.2014 11:34 17,7 C 17,2 C 90 % 1008,6 hPa 0,0 l/m 0 min 0 min 0,0 UV-I 139 W/m 20,9 km/h (4 Bft)
13.07.2014 11:36 17,7 C 17,2 C 90 % 1008,6 hPa 0,0 l/m 0 min 0 min 0,0 UV-I 148 W/m 12,6 km/h (3 Bft)
13.07.2014 11:38 17,7 C 17,8 C 91 % 1008,6 hPa 0,0 l/m 0 min 0 min 0,7 UV-I 190 W/m 20,9 km/h (4 Bft)
13.07.2014 11:40 17,6 C 17,8 C 91 % 1008,6 hPa 0,0 l/m 0 min 0 min 0,8 UV-I 190 W/m 20,9 km/h (4 Bft)
13.07.2014 11:42 17,7 C 17,8 C 91 % 1008,6 hPa 0,0 l/m 0 min 0 min 0,9 UV-I 207 W/m 16,7 km/h (3 Bft)
13.07.2014 11:44 17,7 C 17,8 C 91 % 1008,6 hPa 0,0 l/m 0 min 0 min 0,0 UV-I 135 W/m 25,1 km/h (4 Bft)
13.07.2014 11:46 17,6 C 17,2 C 91 % 1008,5 hPa 0,0 l/m 0 min 0 min 0,5 UV-I 148 W/m 23,0 km/h (4 Bft)
13.07.2014 11:48 17,5 C 17,2 C 90 % 1008,6 hPa 0,0 l/m 0 min 0 min 0,0 UV-I 137 W/m 27,2 km/h (4 Bft)
13.07.2014 11:50 17,4 C 17,2 C 90 % 1008,5 hPa 0,0 l/m 0 min 0 min 0,0 UV-I 116 W/m 18,8 km/h (3 Bft)
13.07.2014 11:52 17,4 C 17,2 C 91 % 1008,5 hPa 0,0 l/m 0 min 0 min 0,0 UV-I 109 W/m 16,7 km/h (3 Bft)
13.07.2014 11:54 17,4 C 17,2 C 91 % 1008,5 hPa 0,0 l/m 0 min 0 min 0,0 UV-I 121 W/m 20,9 km/h (4 Bft)
13.07.2014 11:56 17,4 C 17,2 C 91 % 1008,6 hPa 0,0 l/m 0 min 0 min 0,0 UV-I 125 W/m 16,7 km/h (3 Bft)
13.07.2014 11:58 17,4 C 17,2 C 91 % 1008,5 hPa 0,0 l/m 0 min 0 min 0,0 UV-I 125 W/m 20,9 km/h (4 Bft)
13.07.2014 12:00 17,4 C 17,2 C 91 % 1008,5 hPa 0,0 l/m 0 min 0 min 0,6 UV-I 167 W/m 20,9 km/h (4 Bft)
13.07.2014 12:02 17,4 C 17,2 C 91 % 1008,5 hPa 0,0 l/m 0 min 0 min 0,8 UV-I 186 W/m 16,7 km/h (3 Bft)
13.07.2014 12:06 17,6 C 17,8 C 91 % 1008,5 hPa 0,0 l/m 0 min 0 min 1,2 UV-I 227 W/m 16,7 km/h (3 Bft)
13.07.2014 12:08 17,7 C 17,8 C 91 % 1008,5 hPa 0,0 l/m 0 min 0 min 1,1 UV-I 234 W/m 14,6 km/h (3 Bft)
13.07.2014 12:10 17,7 C 17,8 C 91 % 1008,5 hPa 0,0 l/m 0 min 0 min 0,6 UV-I 176 W/m 12,6 km/h (3 Bft)
13.07.2014 12:12 17,8 C 17,8 C 91 % 1008,5 hPa 0,0 l/m 0 min 0 min 0,0 UV-I 132 W/m 12,6 km/h (3 Bft)
13.07.2014 12:14 17,8 C 17,8 C 90 % 1008,5 hPa 0,0 l/m 0 min 0 min 0,0 UV-I 123 W/m 16,7 km/h (3 Bft)
13.07.2014 12:16 17,8 C 17,2 C 90 % 1008,5 hPa 0,0 l/m 0 min 0 min 0,0 UV-I 114 W/m 25,1 km/h (4 Bft)
13.07.2014 12:18 17,7 C 17,2 C 90 % 1008,5 hPa 0,0 l/m 0 min 0 min 0,0 UV-I 121 W/m 20,9 km/h (4 Bft)
13.07.2014 12:20 17,7 C 17,2 C 90 % 1008,5 hPa 0,0 l/m 0 min 0 min 0,0 UV-I 135 W/m 16,7 km/h (3 Bft)
13.07.2014 12:22 17,7 C 17,2 C 91 % 1008,5 hPa 0,0 l/m 0 min 0 min 0,5 UV-I 135 W/m 18,8 km/h (3 Bft)
13.07.2014 12:24 17,6 C 17,2 C 90 % 1008,5 hPa 0,0 l/m 0 min 0 min 0,8 UV-I 218 W/m 23,0 km/h (4 Bft)
13.07.2014 12:26 17,7 C 17,2 C 90 % 1008,5 hPa 0,0 l/m 0 min 0 min 1,4 UV-I 276 W/m 16,7 km/h (3 Bft)
13.07.2014 12:28 17,7 C 17,8 C 90 % 1008,5 hPa 0,0 l/m 0 min 0 min 2,1 UV-I 345 W/m 23,0 km/h (4 Bft)
13.07.2014 12:30 18,0 C 18,3 C 91 % 1008,5 hPa 0,0 l/m 2 min 0 min 2,3 UV-I 408 W/m 16,7 km/h (3 Bft)
13.07.2014 12:32 18,2 C 18,3 C 90 % 1008,5 hPa 0,0 l/m 0 min 0 min 2,5 UV-I 399 W/m 18,8 km/h (3 Bft)
13.07.2014 12:34 18,4 C 18,9 C 90 % 1008,5 hPa 0,0 l/m 0 min 2 min 2,2 UV-I 362 W/m 20,9 km/h (4 Bft)
13.07.2014 12:36 18,6 C 18,9 C 90 % 1008,5 hPa 0,0 l/m 0 min 2 min 2,0 UV-I 332 W/m 20,9 km/h (4 Bft)
13.07.2014 12:38 18,7 C 18,9 C 89 % 1008,5 hPa 0,0 l/m 0 min 0 min 1,5 UV-I 264 W/m 18,8 km/h (3 Bft)
13.07.2014 12:40 18,7 C 18,9 C 88 % 1008,5 hPa 0,0 l/m 0 min 0 min 1,1 UV-I 216 W/m 16,7 km/h (3 Bft)
13.07.2014 12:42 18,7 C 18,9 C 88 % 1008,5 hPa 0,0 l/m 0 min 0 min 0,8 UV-I 181 W/m 12,6 km/h (3 Bft)
13.07.2014 12:44 18,8 C 18,9 C 88 % 1008,5 hPa 0,0 l/m 0 min 0 min 0,7 UV-I 179 W/m 12,6 km/h (3 Bft)
13.07.2014 12:46 18,7 C 18,9 C 88 % 1008,5 hPa 0,0 l/m 0 min 0 min 0,7 UV-I 172 W/m 18,8 km/h (3 Bft)
13.07.2014 12:48 18,6 C 18,3 C 88 % 1008,5 hPa 0,0 l/m 0 min 0 min 0,7 UV-I 186 W/m 23,0 km/h (4 Bft)
13.07.2014 12:50 18,6 C 18,3 C 88 % 1008,5 hPa 0,0 l/m 0 min 0 min 0,8 UV-I 193 W/m 16,7 km/h (3 Bft)
13.07.2014 12:52 18,5 C 18,3 C 87 % 1008,5 hPa 0,0 l/m 0 min 0 min 0,5 UV-I 160 W/m 20,9 km/h (4 Bft)
13.07.2014 12:54 18,4 C 18,3 C 87 % 1008,5 hPa 0,0 l/m 0 min 0 min 0,0 UV-I 130 W/m 16,7 km/h (3 Bft)
13.07.2014 12:56 18,4 C 17,8 C 87 % 1008,5 hPa 0,0 l/m 0 min 0 min 0,0 UV-I 141 W/m 16,7 km/h (3 Bft)
13.07.2014 12:58 18,3 C 17,8 C 88 % 1008,5 hPa 0,0 l/m 0 min 0 min 0,6 UV-I 162 W/m 18,8 km/h (3 Bft)
13.07.2014 13:00 18,3 C 17,8 C 88 % 1008,5 hPa 0,0 l/m 0 min 0 min 0,5 UV-I 153 W/m 20,9 km/h (4 Bft)
13.07.2014 13:02 18,3 C 17,8 C 87 % 1008,5 hPa 0,0 l/m 0 min 0 min 0,5 UV-I 151 W/m 29,3 km/h (5 Bft)
13.07.2014 13:04 18,3 C 17,8 C 88 % 1008,5 hPa 0,0 l/m 0 min 0 min 0,0 UV-I 139 W/m 18,8 km/h (3 Bft)
13.07.2014 13:06 18,3 C 17,8 C 88 % 1008,4 hPa 0,0 l/m 0 min 0 min 0,0 UV-I 128 W/m 14,6 km/h (3 Bft)
13.07.2014 13:08 18,3 C 17,8 C 88 % 1008,4 hPa 0,0 l/m 0 min 0 min 0,5 UV-I 146 W/m 12,6 km/h (3 Bft)
13.07.2014 13:10 18,4 C 17,8 C 88 % 1008,4 hPa 0,0 l/m 0 min 0 min 0,7 UV-I 174 W/m 12,6 km/h (3 Bft)
13.07.2014 13:12 18,4 C 18,3 C 88 % 1008,4 hPa 0,0 l/m 0 min 0 min 1,1 UV-I 225 W/m 10,5 km/h (2 Bft)
13.07.2014 13:14 18,5 C 18,3 C 88 % 1008,4 hPa 0,0 l/m 0 min 0 min 1,3 UV-I 265 W/m 12,6 km/h (3 Bft)
13.07.2014 13:16 18,6 C 18,3 C 88 % 1008,3 hPa 0,0 l/m 0 min 0 min 1,7 UV-I 318 W/m 14,6 km/h (3 Bft)
13.07.2014 13:18 18,7 C 18,9 C 88 % 1008,4 hPa 0,0 l/m 0 min 0 min 2,0 UV-I 360 W/m 12,6 km/h (3 Bft)
13.07.2014 13:20 18,9 C 19,4 C 87 % 1008,3 hPa 0,0 l/m 0 min 0 min 2,3 UV-I 388 W/m 16,7 km/h (3 Bft)
13.07.2014 13:22 19,0 C 19,4 C 87 % 1008,3 hPa 0,0 l/m 0 min 0 min 2,5 UV-I 399 W/m 8,4 km/h (2 Bft)
13.07.2014 13:24 19,3 C 20,0 C 88 % 1008,2 hPa 0,0 l/m 0 min 0 min 2,3 UV-I 378 W/m 14,6 km/h (3 Bft)
13.07.2014 13:26 19,4 C 20,0 C 87 % 1008,2 hPa 0,0 l/m 0 min 0 min 1,7 UV-I 297 W/m 14,6 km/h (3 Bft)
13.07.2014 13:28 19,5 C 20,0 C 86 % 1008,1 hPa 0,0 l/m 0 min 0 min 1,7 UV-I 308 W/m 12,6 km/h (3 Bft)
13.07.2014 13:30 19,4 C 20,0 C 85 % 1008,2 hPa 0,0 l/m 0 min 0 min 1,7 UV-I 320 W/m 10,5 km/h (2 Bft)
13.07.2014 13:32 19,6 C 20,0 C 86 % 1008,1 hPa 0,0 l/m 0 min 0 min 2,0 UV-I 350 W/m 8,4 km/h (2 Bft)
13.07.2014 13:34 19,7 C 20,6 C 85 % 1008,1 hPa 0,0 l/m 2 min 0 min 2,5 UV-I 452 W/m 10,5 km/h (2 Bft)
13.07.2014 13:36 19,8 C 20,6 C 85 % 1008,1 hPa 0,0 l/m 2 min 0 min 2,7 UV-I 462 W/m 12,6 km/h (3 Bft)
13.07.2014 13:38 19,9 C 21,1 C 85 % 1008,0 hPa 0,0 l/m 2 min 0 min 2,7 UV-I 438 W/m 6,3 km/h (2 Bft)
13.07.2014 13:40 20,1 C 21,1 C 84 % 1008,0 hPa 0,0 l/m 2 min 0 min 2,9 UV-I 499 W/m 16,7 km/h (3 Bft)
13.07.2014 13:42 20,2 C 21,1 C 84 % 1008,0 hPa 0,0 l/m 2 min 0 min 2,4 UV-I 434 W/m 16,7 km/h (3 Bft)
13.07.2014 13:44 20,2 C 21,1 C 82 % 1008,0 hPa 0,0 l/m 0 min 0 min 1,8 UV-I 343 W/m 16,7 km/h (3 Bft)
13.07.2014 13:46 20,3 C 20,6 C 83 % 1008,0 hPa 0,0 l/m 0 min 0 min 1,3 UV-I 278 W/m 10,5 km/h (2 Bft)
13.07.2014 13:48 20,3 C 20,6 C 83 % 1008,0 hPa 0,0 l/m 0 min 0 min 1,7 UV-I 309 W/m 10,5 km/h (2 Bft)
13.07.2014 13:50 20,4 C 21,1 C 84 % 1008,0 hPa 0,0 l/m 0 min 0 min 1,8 UV-I 323 W/m 10,5 km/h (2 Bft)
13.07.2014 13:52 20,4 C 21,1 C 83 % 1008,0 hPa 0,0 l/m 0 min 0 min 1,7 UV-I 299 W/m 12,6 km/h (3 Bft)
13.07.2014 13:54 20,3 C 20,6 C 82 % 1008,0 hPa 0,0 l/m 0 min 0 min 2,1 UV-I 348 W/m 12,6 km/h (3 Bft)
13.07.2014 13:56 20,4 C 21,1 C 83 % 1008,0 hPa 0,0 l/m 2 min 0 min 2,6 UV-I 425 W/m 10,5 km/h (2 Bft)
13.07.2014 13:58 20,5 C 21,1 C 82 % 1007,9 hPa 0,0 l/m 2 min 0 min 2,6 UV-I 436 W/m 16,7 km/h (3 Bft)
13.07.2014 14:00 20,6 C 21,1 C 81 % 1007,9 hPa 0,0 l/m 0 min 0 min 2,4 UV-I 404 W/m 14,6 km/h (3 Bft)
13.07.2014 14:02 20,6 C 21,1 C 81 % 1007,9 hPa 0,0 l/m 0 min 0 min 2,4 UV-I 397 W/m 12,6 km/h (3 Bft)
13.07.2014 14:04 20,5 C 21,1 C 81 % 1007,9 hPa 0,0 l/m 0 min 0 min 2,1 UV-I 288 W/m 12,6 km/h (3 Bft)
13.07.2014 14:06 20,5 C 20,6 C 82 % 1008,0 hPa 0,0 l/m 0 min 0 min 1,3 UV-I 244 W/m 10,5 km/h (2 Bft)
13.07.2014 14:08 20,4 C 20,6 C 81 % 1007,9 hPa 0,0 l/m 0 min 0 min 1,2 UV-I 220 W/m 10,5 km/h (2 Bft)
13.07.2014 14:10 20,3 C 20,6 C 81 % 1007,9 hPa 0,0 l/m 0 min 0 min 1,3 UV-I 218 W/m 8,4 km/h (2 Bft)
13.07.2014 14:12 20,3 C 20,6 C 81 % 1007,8 hPa 0,0 l/m 0 min 0 min 1,0 UV-I 195 W/m 8,4 km/h (2 Bft)
13.07.2014 14:14 20,2 C 20,0 C 81 % 1007,8 hPa 0,0 l/m 0 min 0 min 1,0 UV-I 193 W/m 0,0 km/h (0 Bft)
13.07.2014 14:16 20,2 C 20,0 C 81 % 1007,8 hPa 0,0 l/m 0 min 0 min 1,0 UV-I 213 W/m 2,1 km/h (1 Bft)
13.07.2014 14:18 20,2 C 20,0 C 83 % 1007,8 hPa 0,0 l/m 0 min 0 min 1,2 UV-I 218 W/m 6,3 km/h (2 Bft)
13.07.2014 14:20 20,2 C 20,0 C 82 % 1007,8 hPa 0,0 l/m 0 min 0 min 1,0 UV-I 188 W/m 8,4 km/h (2 Bft)
13.07.2014 14:22 20,3 C 20,0 C 83 % 1007,8 hPa 0,0 l/m 0 min 0 min 0,8 UV-I 169 W/m 14,6 km/h (3 Bft)
13.07.2014 14:24 20,2 C 20,0 C 83 % 1007,9 hPa 0,0 l/m 0 min 0 min 0,9 UV-I 181 W/m 12,6 km/h (3 Bft)
13.07.2014 14:26 20,2 C 20,0 C 83 % 1007,8 hPa 0,0 l/m 0 min 0 min 1,0 UV-I 188 W/m 10,5 km/h (2 Bft)
13.07.2014 14:28 20,2 C 20,0 C 83 % 1007,9 hPa 0,0 l/m 0 min 0 min 1,0 UV-I 193 W/m 14,6 km/h (3 Bft)
13.07.2014 14:30 20,1 C 20,0 C 82 % 1007,8 hPa 0,0 l/m 0 min 0 min 0,9 UV-I 197 W/m 10,5 km/h (2 Bft)
13.07.2014 14:32 20,1 C 20,0 C 84 % 1007,8 hPa 0,0 l/m 0 min 0 min 1,1 UV-I 232 W/m 12,6 km/h (3 Bft)
13.07.2014 14:34 20,1 C 20,0 C 83 % 1007,7 hPa 0,0 l/m 0 min 0 min 1,4 UV-I 221 W/m 12,6 km/h (3 Bft)
13.07.2014 14:36 20,1 C 20,0 C 82 % 1007,7 hPa 0,0 l/m 0 min 0 min 1,5 UV-I 283 W/m 10,5 km/h (2 Bft)
13.07.2014 14:38 20,2 C 20,0 C 83 % 1007,7 hPa 0,0 l/m 0 min 0 min 2,1 UV-I 360 W/m 16,7 km/h (3 Bft)
13.07.2014 14:40 20,4 C 20,6 C 83 % 1007,7 hPa 0,0 l/m 2 min 0 min 3,9 UV-I 712 W/m 8,4 km/h (2 Bft)
13.07.2014 14:42 20,7 C 21,1 C 83 % 1007,7 hPa 0,0 l/m 2 min 0 min 2,4 UV-I 687 W/m 16,7 km/h (3 Bft)
13.07.2014 14:44 20,8 C 21,1 C 81 % 1007,7 hPa 0,0 l/m 0 min 0 min 1,9 UV-I 258 W/m 12,6 km/h (3 Bft)
13.07.2014 14:46 20,8 C 21,1 C 81 % 1007,7 hPa 0,0 l/m 0 min 0 min 1,0 UV-I 195 W/m 10,5 km/h (2 Bft)
13.07.2014 14:48 20,8 C 21,1 C 81 % 1007,7 hPa 0,0 l/m 0 min 0 min 0,8 UV-I 169 W/m 0,0 km/h (0 Bft)
13.07.2014 14:50 20,8 C 20,6 C 83 % 1007,7 hPa 0,0 l/m 0 min 0 min 0,7 UV-I 165 W/m 10,5 km/h (2 Bft)
13.07.2014 14:52 20,6 C 20,6 C 82 % 1007,7 hPa 0,0 l/m 0 min 0 min 1,1 UV-I 220 W/m 10,5 km/h (2 Bft)
13.07.2014 14:54 20,5 C 20,6 C 82 % 1007,6 hPa 0,0 l/m 0 min 0 min 1,5 UV-I 267 W/m 6,3 km/h (2 Bft)
13.07.2014 14:56 20,6 C 20,6 C 82 % 1007,7 hPa 0,0 l/m 0 min 0 min 2,1 UV-I 383 W/m 8,4 km/h (2 Bft)
13.07.2014 14:58 20,7 C 21,1 C 82 % 1007,6 hPa 0,0 l/m 2 min 0 min 4,5 UV-I 418 W/m 6,3 km/h (2 Bft)
13.07.2014 15:00 21,2 C 21,7 C 81 % 1007,5 hPa 0,0 l/m 2 min 0 min 4,5 UV-I 860 W/m 12,6 km/h (3 Bft)
13.07.2014 15:02 21,4 C 22,2 C 82 % 1007,6 hPa 0,0 l/m 2 min 0 min 3,7 UV-I 860 W/m 12,6 km/h (3 Bft)
13.07.2014 15:04 21,4 C 21,7 C 79 % 1007,5 hPa 0,0 l/m 0 min 0 min 2,6 UV-I 346 W/m 10,5 km/h (2 Bft)
13.07.2014 15:06 21,4 C 21,7 C 80 % 1007,5 hPa 0,0 l/m 0 min 0 min 2,3 UV-I 334 W/m 16,7 km/h (3 Bft)
13.07.2014 15:08 21,4 C 21,7 C 78 % 1007,5 hPa 0,0 l/m 0 min 0 min 2,2 UV-I 316 W/m 14,6 km/h (3 Bft)
13.07.2014 15:10 21,3 C 21,7 C 79 % 1007,5 hPa 0,0 l/m 0 min 0 min 2,3 UV-I 371 W/m 16,7 km/h (3 Bft)
13.07.2014 15:12 21,3 C 21,7 C 78 % 1007,5 hPa 0,0 l/m 2 min 0 min 3,7 UV-I 410 W/m 12,6 km/h (3 Bft)
13.07.2014 15:14 21,4 C 22,2 C 79 % 1007,4 hPa 0,0 l/m 2 min 0 min 3,4 UV-I 585 W/m 6,3 km/h (2 Bft)
13.07.2014 15:16 21,7 C 22,2 C 81 % 1007,3 hPa 0,0 l/m 2 min 0 min 3,8 UV-I 506 W/m 6,3 km/h (2 Bft)
13.07.2014 15:18 21,9 C 22,8 C 78 % 1007,3 hPa 0,0 l/m 2 min 0 min 3,9 UV-I 772 W/m 14,6 km/h (3 Bft)
13.07.2014 15:20 22,2 C 22,8 C 78 % 1007,3 hPa 0,0 l/m 2 min 0 min 2,7 UV-I 735 W/m 18,8 km/h (3 Bft)
13.07.2014 15:22 22,2 C 22,2 C 77 % 1007,3 hPa 0,0 l/m 0 min 0 min 2,0 UV-I 290 W/m 25,1 km/h (4 Bft)
13.07.2014 15:24 21,9 C 22,2 C 75 % 1007,3 hPa 0,0 l/m 0 min 0 min 1,8 UV-I 278 W/m 16,7 km/h (3 Bft)
13.07.2014 15:26 21,7 C 21,7 C 76 % 1007,3 hPa 0,0 l/m 0 min 0 min 1,8 UV-I 267 W/m 14,6 km/h (3 Bft)
13.07.2014 15:28 21,7 C 21,7 C 78 % 1007,2 hPa 0,0 l/m 0 min 0 min 1,4 UV-I 239 W/m 12,6 km/h (3 Bft)
13.07.2014 15:30 21,6 C 21,7 C 78 % 1007,3 hPa 0,0 l/m 0 min 0 min 1,5 UV-I 250 W/m 10,5 km/h (2 Bft)
13.07.2014 15:32 21,5 C 21,7 C 78 % 1007,2 hPa 0,0 l/m 0 min 0 min 1,4 UV-I 223 W/m 12,6 km/h (3 Bft)
13.07.2014 15:34 21,4 C 21,1 C 80 % 1007,2 hPa 0,0 l/m 0 min 0 min 0,9 UV-I 192 W/m 14,6 km/h (3 Bft)
13.07.2014 15:36 21,4 C 21,1 C 80 % 1007,2 hPa 0,0 l/m 0 min 0 min 0,8 UV-I 186 W/m 12,6 km/h (3 Bft)
13.07.2014 15:38 21,3 C 20,6 C 79 % 1007,2 hPa 0,0 l/m 0 min 0 min 0,7 UV-I 181 W/m 12,6 km/h (3 Bft)
13.07.2014 15:40 21,2 C 20,6 C 79 % 1007,2 hPa 0,0 l/m 0 min 0 min 0,7 UV-I 179 W/m 10,5 km/h (2 Bft)
13.07.2014 15:42 21,0 C 20,6 C 80 % 1007,2 hPa 0,0 l/m 0 min 0 min 0,6 UV-I 181 W/m 10,5 km/h (2 Bft)
13.07.2014 15:44 21,0 C 20,6 C 81 % 1007,2 hPa 0,0 l/m 0 min 0 min 0,6 UV-I 190 W/m 10,5 km/h (2 Bft)
13.07.2014 15:46 20,9 C 20,6 C 80 % 1007,2 hPa 0,0 l/m 0 min 0 min 0,7 UV-I 202 W/m 12,6 km/h (3 Bft)
13.07.2014 15:48 20,9 C 20,6 C 81 % 1007,2 hPa 0,0 l/m 0 min 0 min 0,8 UV-I 225 W/m 4,2 km/h (1 Bft)
13.07.2014 15:50 20,8 C 20,6 C 80 % 1007,1 hPa 0,0 l/m 0 min 0 min 1,1 UV-I 281 W/m 4,2 km/h (1 Bft)
13.07.2014 15:52 20,9 C 20,6 C 82 % 1007,1 hPa 0,0 l/m 0 min 0 min 1,4 UV-I 341 W/m 8,4 km/h (2 Bft)
13.07.2014 15:54 21,1 C 21,1 C 82 % 1007,1 hPa 0,0 l/m 2 min 0 min 1,9 UV-I 445 W/m 8,4 km/h (2 Bft)
13.07.2014 15:56 21,4 C 21,7 C 82 % 1007,1 hPa 0,0 l/m 2 min 0 min 2,2 UV-I 476 W/m 10,5 km/h (2 Bft)
13.07.2014 15:58 21,6 C 22,2 C 80 % 1007,1 hPa 0,0 l/m 2 min 0 min 2,3 UV-I 506 W/m 12,6 km/h (3 Bft)
13.07.2014 16:00 21,7 C 22,8 C 79 % 1007,0 hPa 0,0 l/m 2 min 0 min 2,7 UV-I 508 W/m 12,6 km/h (3 Bft)
13.07.2014 16:02 21,9 C 23,3 C 79 % 1007,0 hPa 0,0 l/m 2 min 0 min 2,6 UV-I 499 W/m 10,5 km/h (2 Bft)
13.07.2014 16:04 21,9 C 22,8 C 76 % 1007,0 hPa 0,0 l/m 2 min 0 min 2,4 UV-I 473 W/m 8,4 km/h (2 Bft)
13.07.2014 16:06 21,8 C 22,8 C 78 % 1007,0 hPa 0,0 l/m 2 min 0 min 2,2 UV-I 397 W/m 10,5 km/h (2 Bft)
13.07.2014 16:08 21,8 C 22,8 C 77 % 1006,9 hPa 0,0 l/m 2 min 0 min 3,1 UV-I 487 W/m 10,5 km/h (2 Bft)
13.07.2014 16:10 21,7 C 22,8 C 79 % 1006,9 hPa 0,0 l/m 2 min 0 min 3,3 UV-I 807 W/m 12,6 km/h (3 Bft)
13.07.2014 16:12 21,9 C 23,3 C 78 % 1006,9 hPa 0,0 l/m 2 min 0 min 2,9 UV-I 740 W/m 8,4 km/h (2 Bft)
13.07.2014 16:14 21,9 C 23,3 C 77 % 1006,9 hPa 0,0 l/m 2 min 0 min 3,5 UV-I 740 W/m 4,2 km/h (1 Bft)
13.07.2014 16:16 22,1 C 23,3 C 78 % 1006,9 hPa 0,0 l/m 2 min 0 min 2,4 UV-I 740 W/m 0,0 km/h (0 Bft)
13.07.2014 16:18 22,1 C 22,8 C 76 % 1006,9 hPa 0,0 l/m 2 min 0 min 3,2 UV-I 745 W/m 10,5 km/h (2 Bft)
13.07.2014 16:20 22,1 C 22,8 C 76 % 1006,9 hPa 0,0 l/m 2 min 0 min 2,6 UV-I 584 W/m 6,3 km/h (2 Bft)
13.07.2014 16:22 21,9 C 22,8 C 77 % 1006,9 hPa 0,0 l/m 2 min 0 min 2,7 UV-I 580 W/m 2,1 km/h (1 Bft)
13.07.2014 16:24 22,1 C 22,8 C 79 % 1006,9 hPa 0,0 l/m 2 min 0 min 2,9 UV-I 777 W/m 16,7 km/h (3 Bft)
13.07.2014 16:26 22,4 C 22,8 C 78 % 1006,8 hPa 0,0 l/m 2 min 0 min 1,9 UV-I 777 W/m 12,6 km/h (3 Bft)
13.07.2014 16:28 22,5 C 22,8 C 77 % 1006,7 hPa 0,0 l/m 2 min 0 min 2,7 UV-I 422 W/m 4,2 km/h (1 Bft)
13.07.2014 16:30 22,4 C 22,8 C 76 % 1006,7 hPa 0,0 l/m 2 min 0 min 1,9 UV-I 422 W/m 10,5 km/h (2 Bft)
13.07.2014 16:32 22,4 C 22,8 C 76 % 1006,7 hPa 0,0 l/m 2 min 0 min 2,8 UV-I 740 W/m 10,5 km/h (2 Bft)
13.07.2014 16:34 22,7 C 22,8 C 76 % 1006,6 hPa 0,0 l/m 2 min 0 min 2,8 UV-I 737 W/m 10,5 km/h (2 Bft)
13.07.2014 16:36 22,9 C 22,8 C 76 % 1006,6 hPa 0,0 l/m 2 min 0 min 2,6 UV-I 722 W/m 10,5 km/h (2 Bft)
13.07.2014 16:38 23,1 C 22,8 C 75 % 1006,6 hPa 0,0 l/m 0 min 0 min 1,2 UV-I 243 W/m 10,5 km/h (2 Bft)
13.07.2014 16:40 23,0 C 22,8 C 74 % 1006,6 hPa 0,0 l/m 0 min 0 min 1,0 UV-I 207 W/m 10,5 km/h (2 Bft)
13.07.2014 16:42 22,8 C 22,2 C 75 % 1006,5 hPa 0,0 l/m 0 min 0 min 0,8 UV-I 100 W/m 10,5 km/h (2 Bft)
13.07.2014 16:44 22,6 C 21,7 C 76 % 1006,5 hPa 0,0 l/m 0 min 0 min 0,0 UV-I 63 W/m 8,4 km/h (2 Bft)
13.07.2014 16:46 22,3 C 21,7 C 76 % 1006,6 hPa 0,0 l/m 0 min 0 min 0,0 UV-I 49 W/m 14,6 km/h (3 Bft)
13.07.2014 16:48 22,1 C 20,6 C 76 % 1006,6 hPa 0,0 l/m 0 min 0 min 0,0 UV-I 40 W/m 20,9 km/h (4 Bft)
13.07.2014 16:50 21,7 C 20,6 C 77 % 1006,6 hPa 0,0 l/m 0 min 0 min 0,0 UV-I 37 W/m 25,1 km/h (4 Bft)
13.07.2014 16:52 21,4 C 19,4 C 79 % 1006,7 hPa 0,0 l/m 0 min 0 min 0,0 UV-I 40 W/m 31,4 km/h (5 Bft)
13.07.2014 16:54 20,8 C 17,8 C 81 % 1006,7 hPa 0,2 l/m 0 min 2 min 0,0 UV-I 60 W/m 23,0 km/h (4 Bft)
13.07.2014 16:56 20,2 C 17,2 C 84 % 1006,8 hPa 0,6 l/m 0 min 2 min 0,0 UV-I 77 W/m 27,2 km/h (4 Bft)
13.07.2014 16:58 19,6 C 16,7 C 86 % 1006,9 hPa 0,6 l/m 0 min 2 min 0,0 UV-I 97 W/m 29,3 km/h (5 Bft)
13.07.2014 17:00 19,0 C 16,7 C 88 % 1006,8 hPa 0,8 l/m 0 min 2 min 0,0 UV-I 132 W/m 20,9 km/h (4 Bft)
13.07.2014 17:02 18,7 C 16,7 C 90 % 1006,9 hPa 0,2 l/m 0 min 2 min 0,0 UV-I 156 W/m 20,9 km/h (4 Bft)
13.07.2014 17:04 18,4 C 16,7 C 91 % 1006,8 hPa 0,2 l/m 0 min 2 min 0,0 UV-I 260 W/m 14,6 km/h (3 Bft)
13.07.2014 17:06 18,3 C 17,2 C 91 % 1006,7 hPa 0,0 l/m 0 min 2 min 0,0 UV-I 185 W/m 10,5 km/h (2 Bft)
13.07.2014 17:08 18,3 C 17,2 C 92 % 1006,7 hPa 0,0 l/m 0 min 0 min 0,0 UV-I 174 W/m 8,4 km/h (2 Bft)
13.07.2014 17:10 18,4 C 17,2 C 93 % 1006,7 hPa 0,0 l/m 0 min 0 min 0,0 UV-I 199 W/m 12,6 km/h (3 Bft)
13.07.2014 17:12 18,6 C 17,8 C 93 % 1006,7 hPa 0,0 l/m 0 min 0 min 0,8 UV-I 274 W/m 12,6 km/h (3 Bft)
13.07.2014 17:14 18,8 C 18,3 C 94 % 1006,6 hPa 0,0 l/m 2 min 0 min 1,0 UV-I 332 W/m 4,2 km/h (1 Bft)
13.07.2014 17:16 19,1 C 18,9 C 95 % 1006,6 hPa 0,0 l/m 2 min 0 min 1,1 UV-I 577 W/m 8,4 km/h (2 Bft)
13.07.2014 17:18 19,4 C 18,9 C 95 % 1006,6 hPa 0,0 l/m 0 min 0 min 1,0 UV-I 294 W/m 14,6 km/h (3 Bft)
13.07.2014 17:20 19,6 C 18,9 C 95 % 1006,6 hPa 0,0 l/m 0 min 0 min 0,9 UV-I 241 W/m 8,4 km/h (2 Bft)
13.07.2014 17:22 19,6 C 18,3 C 95 % 1006,5 hPa 0,0 l/m 0 min 0 min 0,9 UV-I 276 W/m 14,6 km/h (3 Bft)
13.07.2014 17:24 19,6 C 18,3 C 95 % 1006,6 hPa 0,0 l/m 0 min 0 min 0,7 UV-I 193 W/m 6,3 km/h (2 Bft)
13.07.2014 17:26 19,6 C 18,3 C 95 % 1006,5 hPa 0,0 l/m 2 min 0 min 0,8 UV-I 299 W/m 14,6 km/h (3 Bft)
13.07.2014 17:28 19,8 C 18,9 C 94 % 1006,5 hPa 0,0 l/m 2 min 0 min 0,8 UV-I 345 W/m 12,6 km/h (3 Bft)
13.07.2014 17:30 20,1 C 19,4 C 95 % 1006,5 hPa 0,0 l/m 2 min 0 min 0,9 UV-I 357 W/m 12,6 km/h (3 Bft)
13.07.2014 17:32 20,1 C 18,9 C 94 % 1006,4 hPa 0,0 l/m 2 min 0 min 0,9 UV-I 366 W/m 16,7 km/h (3 Bft)
13.07.2014 17:34 20,2 C 19,4 C 94 % 1006,4 hPa 0,0 l/m 2 min 0 min 0,9 UV-I 577 W/m 16,7 km/h (3 Bft)
13.07.2014 17:36 20,3 C 19,4 C 94 % 1006,4 hPa 0,0 l/m 2 min 0 min 0,9 UV-I 577 W/m 18,8 km/h (3 Bft)
13.07.2014 17:38 20,4 C 19,4 C 93 % 1006,4 hPa 0,0 l/m 2 min 0 min 0,9 UV-I 552 W/m 18,8 km/h (3 Bft)
13.07.2014 17:40 20,4 C 19,4 C 92 % 1006,4 hPa 0,0 l/m 2 min 0 min 0,9 UV-I 299 W/m 16,7 km/h (3 Bft)
13.07.2014 17:42 20,3 C 19,4 C 91 % 1006,4 hPa 0,0 l/m 2 min 0 min 0,8 UV-I 436 W/m 14,6 km/h (3 Bft)
13.07.2014 17:44 20,3 C 19,4 C 90 % 1006,4 hPa 0,0 l/m 2 min 0 min 0,8 UV-I 334 W/m 16,7 km/h (3 Bft)
13.07.2014 17:46 20,3 C 18,9 C 90 % 1006,4 hPa 0,0 l/m 2 min 0 min 0,8 UV-I 513 W/m 14,6 km/h (3 Bft)
13.07.2014 17:48 20,4 C 18,9 C 90 % 1006,3 hPa 0,0 l/m 2 min 0 min 0,7 UV-I 332 W/m 10,5 km/h (2 Bft)
13.07.2014 17:50 20,4 C 18,9 C 90 % 1006,4 hPa 0,0 l/m 2 min 0 min 0,7 UV-I 318 W/m 14,6 km/h (3 Bft)
13.07.2014 17:52 20,3 C 18,9 C 88 % 1006,4 hPa 0,0 l/m 0 min 0 min 0,7 UV-I 204 W/m 14,6 km/h (3 Bft)
13.07.2014 17:54 20,2 C 18,3 C 88 % 1006,4 hPa 0,0 l/m 0 min 0 min 0,6 UV-I 192 W/m 10,5 km/h (2 Bft)
13.07.2014 17:56 20,1 C 18,3 C 89 % 1006,4 hPa 0,0 l/m 0 min 0 min 0,6 UV-I 193 W/m 10,5 km/h (2 Bft)
13.07.2014 17:58 20,1 C 18,3 C 89 % 1006,4 hPa 0,0 l/m 0 min 0 min 0,6 UV-I 225 W/m 8,4 km/h (2 Bft)
13.07.2014 18:00 19,9 C 18,3 C 89 % 1006,4 hPa 0,0 l/m 0 min 0 min 0,6 UV-I 220 W/m 10,5 km/h (2 Bft)
13.07.2014 18:02 19,9 C 18,3 C 90 % 1006,4 hPa 0,0 l/m 0 min 0 min 0,6 UV-I 213 W/m 12,6 km/h (3 Bft)
13.07.2014 18:06 19,9 C 18,9 C 90 % 1006,3 hPa 0,0 l/m 2 min 0 min 0,5 UV-I 279 W/m 8,4 km/h (2 Bft)
13.07.2014 18:08 20,0 C 18,9 C 90 % 1006,3 hPa 0,0 l/m 0 min 0 min 0,5 UV-I 213 W/m 8,4 km/h (2 Bft)
13.07.2014 18:10 20,1 C 18,9 C 90 % 1006,3 hPa 0,0 l/m 0 min 0 min 0,5 UV-I 192 W/m 6,3 km/h (2 Bft)
13.07.2014 18:12 19,9 C 18,9 C 90 % 1006,3 hPa 0,0 l/m 0 min 0 min 0,0 UV-I 183 W/m 10,5 km/h (2 Bft)
13.07.2014 18:14 19,9 C 18,9 C 89 % 1006,4 hPa 0,0 l/m 0 min 0 min 0,0 UV-I 178 W/m 8,4 km/h (2 Bft)
13.07.2014 18:16 20,0 C 18,9 C 90 % 1006,3 hPa 0,0 l/m 0 min 0 min 0,0 UV-I 169 W/m 8,4 km/h (2 Bft)
13.07.2014 18:18 20,0 C 18,9 C 90 % 1006,3 hPa 0,0 l/m 0 min 0 min 0,0 UV-I 165 W/m 8,4 km/h (2 Bft)
13.07.2014 18:20 20,0 C 18,9 C 90 % 1006,3 hPa 0,0 l/m 0 min 0 min 0,0 UV-I 163 W/m 8,4 km/h (2 Bft)
13.07.2014 18:22 20,0 C 18,9 C 90 % 1006,3 hPa 0,0 l/m 0 min 0 min 0,0 UV-I 162 W/m 6,3 km/h (2 Bft)
13.07.2014 18:24 20,0 C 18,9 C 90 % 1006,3 hPa 0,0 l/m 0 min 0 min 0,0 UV-I 162 W/m 6,3 km/h (2 Bft)
13.07.2014 18:26 19,9 C 18,3 C 90 % 1006,3 hPa 0,0 l/m 0 min 2 min 0,0 UV-I 160 W/m 6,3 km/h (2 Bft)
13.07.2014 18:28 20,1 C 18,3 C 90 % 1006,3 hPa 0,0 l/m 0 min 2 min 0,0 UV-I 155 W/m 8,4 km/h (2 Bft)
13.07.2014 18:30 20,1 C 18,3 C 89 % 1006,3 hPa 0,0 l/m 0 min 2 min 0,0 UV-I 149 W/m 8,4 km/h (2 Bft)
13.07.2014 18:32 20,1 C 18,3 C 90 % 1006,2 hPa 0,0 l/m 0 min 2 min 0,0 UV-I 144 W/m 0,0 km/h (0 Bft)
13.07.2014 18:34 20,1 C 18,3 C 91 % 1006,3 hPa 0,0 l/m 0 min 2 min 0,0 UV-I 139 W/m 0,0 km/h (0 Bft)
13.07.2014 18:36 20,1 C 18,3 C 91 % 1006,2 hPa 0,0 l/m 0 min 2 min 0,0 UV-I 142 W/m 0,0 km/h (0 Bft)
13.07.2014 18:38 19,9 C 18,3 C 91 % 1006,2 hPa 0,0 l/m 0 min 2 min 0,0 UV-I 146 W/m 6,3 km/h (2 Bft)
13.07.2014 18:40 19,9 C 18,3 C 91 % 1006,2 hPa 0,0 l/m 0 min 0 min 0,0 UV-I 148 W/m 6,3 km/h (2 Bft)
13.07.2014 18:42 19,9 C 18,3 C 91 % 1006,2 hPa 0,0 l/m 0 min 0 min 0,0 UV-I 151 W/m 0,0 km/h (0 Bft)
13.07.2014 18:44 19,9 C 18,3 C 91 % 1006,2 hPa 0,0 l/m 0 min 0 min 0,0 UV-I 156 W/m 0,0 km/h (0 Bft)
13.07.2014 18:46 20,0 C 18,9 C 92 % 1006,2 hPa 0,0 l/m 0 min 0 min 0,0 UV-I 158 W/m 0,0 km/h (0 Bft)
13.07.2014 18:48 20,0 C 18,9 C 91 % 1006,3 hPa 0,0 l/m 0 min 0 min 0,0 UV-I 149 W/m 6,3 km/h (2 Bft)
13.07.2014 18:50 20,1 C 18,9 C 92 % 1006,3 hPa 0,0 l/m 0 min 0 min 0,0 UV-I 132 W/m 6,3 km/h (2 Bft)
13.07.2014 18:52 20,1 C 18,9 C 91 % 1006,3 hPa 0,0 l/m 0 min 0 min 0,0 UV-I 107 W/m 8,4 km/h (2 Bft)
13.07.2014 18:54 20,2 C 18,3 C 91 % 1006,3 hPa 0,0 l/m 0 min 0 min 0,0 UV-I 98 W/m 6,3 km/h (2 Bft)
13.07.2014 18:56 20,1 C 18,3 C 91 % 1006,2 hPa 0,0 l/m 0 min 0 min 0,0 UV-I 97 W/m 2,1 km/h (1 Bft)
13.07.2014 18:58 20,1 C 18,3 C 91 % 1006,2 hPa 0,0 l/m 0 min 0 min 0,0 UV-I 97 W/m 0,0 km/h (0 Bft)
13.07.2014 19:00 20,0 C 18,3 C 91 % 1006,2 hPa 0,0 l/m 0 min 0 min 0,0 UV-I 97 W/m 12,6 km/h (3 Bft)
13.07.2014 19:02 20,0 C 18,3 C 91 % 1006,2 hPa 0,0 l/m 0 min 0 min 0,0 UV-I 93 W/m 2,1 km/h (1 Bft)
13.07.2014 19:04 20,0 C 18,3 C 91 % 1006,2 hPa 0,0 l/m 0 min 0 min 0,0 UV-I 90 W/m 6,3 km/h (2 Bft)
13.07.2014 19:06 20,0 C 18,3 C 91 % 1006,2 hPa 0,0 l/m 0 min 0 min 0,0 UV-I 86 W/m 0,0 km/h (0 Bft)
13.07.2014 19:08 20,0 C 18,3 C 92 % 1006,3 hPa 0,0 l/m 0 min 0 min 0,0 UV-I 83 W/m 8,4 km/h (2 Bft)
13.07.2014 19:10 19,9 C 18,3 C 91 % 1006,2 hPa 0,0 l/m 0 min 0 min 0,0 UV-I 81 W/m 6,3 km/h (2 Bft)
13.07.2014 19:12 19,9 C 18,3 C 91 % 1006,3 hPa 0,0 l/m 0 min 0 min 0,0 UV-I 79 W/m 10,5 km/h (2 Bft)
13.07.2014 19:14 19,9 C 18,3 C 91 % 1006,3 hPa 0,0 l/m 0 min 0 min 0,0 UV-I 76 W/m 6,3 km/h (2 Bft)
13.07.2014 19:16 19,9 C 18,3 C 91 % 1006,3 hPa 0,0 l/m 0 min 0 min 0,0 UV-I 74 W/m 10,5 km/h (2 Bft)
13.07.2014 19:18 19,8 C 18,3 C 91 % 1006,3 hPa 0,0 l/m 0 min 0 min 0,0 UV-I 70 W/m 10,5 km/h (2 Bft)
13.07.2014 19:20 19,8 C 18,3 C 91 % 1006,3 hPa 0,0 l/m 0 min 0 min 0,0 UV-I 67 W/m 6,3 km/h (2 Bft)
13.07.2014 19:22 19,8 C 18,3 C 91 % 1006,3 hPa 0,0 l/m 0 min 0 min 0,0 UV-I 63 W/m 8,4 km/h (2 Bft)
13.07.2014 19:24 19,8 C 17,8 C 92 % 1006,3 hPa 0,0 l/m 0 min 0 min 0,0 UV-I 62 W/m 6,3 km/h (2 Bft)
13.07.2014 19:26 19,8 C 17,8 C 92 % 1006,3 hPa 0,0 l/m 0 min 0 min 0,0 UV-I 63 W/m 6,3 km/h (2 Bft)
13.07.2014 19:28 19,7 C 17,8 C 92 % 1006,3 hPa 0,0 l/m 0 min 0 min 0,0 UV-I 65 W/m 6,3 km/h (2 Bft)
13.07.2014 19:30 19,7 C 17,8 C 92 % 1006,4 hPa 0,0 l/m 0 min 0 min 0,0 UV-I 65 W/m 8,4 km/h (2 Bft)
13.07.2014 19:32 19,7 C 17,8 C 92 % 1006,3 hPa 0,0 l/m 0 min 0 min 0,0 UV-I 72 W/m 8,4 km/h (2 Bft)
13.07.2014 19:34 19,7 C 17,8 C 92 % 1006,3 hPa 0,0 l/m 0 min 0 min 0,0 UV-I 93 W/m 6,3 km/h (2 Bft)
13.07.2014 19:36 19,7 C 17,8 C 92 % 1006,3 hPa 0,0 l/m 0 min 0 min 0,0 UV-I 123 W/m 8,4 km/h (2 Bft)
13.07.2014 19:38 19,7 C 18,3 C 92 % 1006,3 hPa 0,0 l/m 0 min 2 min 0,0 UV-I 121 W/m 0,0 km/h (0 Bft)
13.07.2014 19:40 19,8 C 18,3 C 92 % 1006,3 hPa 0,0 l/m 0 min 0 min 0,0 UV-I 130 W/m 0,0 km/h (0 Bft)
13.07.2014 19:42 19,8 C 18,3 C 92 % 1006,3 hPa 0,0 l/m 0 min 0 min 0,0 UV-I 109 W/m 2,1 km/h (1 Bft)
13.07.2014 19:44 19,8 C 18,3 C 92 % 1006,4 hPa 0,0 l/m 0 min 0 min 0,0 UV-I 100 W/m 6,3 km/h (2 Bft)
13.07.2014 19:46 19,9 C 18,3 C 92 % 1006,3 hPa 0,0 l/m 0 min 0 min 0,0 UV-I 97 W/m 8,4 km/h (2 Bft)
13.07.2014 19:48 19,9 C 18,3 C 92 % 1006,3 hPa 0,0 l/m 0 min 0 min 0,0 UV-I 93 W/m 6,3 km/h (2 Bft)
13.07.2014 19:50 19,9 C 18,3 C 92 % 1006,4 hPa 0,0 l/m 0 min 0 min 0,0 UV-I 90 W/m 10,5 km/h (2 Bft)
13.07.2014 19:52 19,9 C 18,3 C 92 % 1006,4 hPa 0,0 l/m 0 min 0 min 0,0 UV-I 86 W/m 10,5 km/h (2 Bft)
13.07.2014 19:54 19,9 C 18,3 C 91 % 1006,4 hPa 0,0 l/m 0 min 0 min 0,0 UV-I 81 W/m 10,5 km/h (2 Bft)
13.07.2014 19:56 19,8 C 18,3 C 91 % 1006,3 hPa 0,0 l/m 0 min 0 min 0,0 UV-I 77 W/m 10,5 km/h (2 Bft)
13.07.2014 19:58 19,8 C 18,3 C 91 % 1006,3 hPa 0,0 l/m 0 min 0 min 0,0 UV-I 76 W/m 8,4 km/h (2 Bft)
13.07.2014 20:00 19,8 C 18,3 C 91 % 1006,3 hPa 0,0 l/m 0 min 0 min 0,0 UV-I 74 W/m 8,4 km/h (2 Bft)
13.07.2014 20:02 19,7 C 18,3 C 91 % 1006,4 hPa 0,0 l/m 0 min 0 min 0,0 UV-I 69 W/m 8,4 km/h (2 Bft)
13.07.2014 20:04 19,7 C 17,8 C 91 % 1006,4 hPa 0,0 l/m 0 min 0 min 0,0 UV-I 65 W/m 10,5 km/h (2 Bft)
13.07.2014 20:06 19,7 C 17,8 C 91 % 1006,4 hPa 0,0 l/m 0 min 0 min 0,0 UV-I 62 W/m 2,1 km/h (1 Bft)
13.07.2014 20:08 19,7 C 17,8 C 91 % 1006,3 hPa 0,0 l/m 0 min 0 min 0,0 UV-I 56 W/m 0,0 km/h (0 Bft)
13.07.2014 20:10 19,7 C 17,8 C 91 % 1006,3 hPa 0,0 l/m 0 min 0 min 0,0 UV-I 53 W/m 0,0 km/h (0 Bft)
13.07.2014 20:12 19,6 C 17,8 C 91 % 1006,4 hPa 0,0 l/m 0 min 0 min 0,0 UV-I 49 W/m 0,0 km/h (0 Bft)
13.07.2014 20:14 19,6 C 17,8 C 91 % 1006,4 hPa 0,0 l/m 0 min 0 min 0,0 UV-I 46 W/m 6,3 km/h (2 Bft)
13.07.2014 20:16 19,6 C 17,8 C 91 % 1006,4 hPa 0,0 l/m 0 min 0 min 0,0 UV-I 42 W/m 2,1 km/h (1 Bft)
13.07.2014 20:18 19,6 C 17,8 C 91 % 1006,4 hPa 0,0 l/m 0 min 0 min 0,0 UV-I 37 W/m 6,3 km/h (2 Bft)
13.07.2014 20:20 19,6 C 17,8 C 91 % 1006,4 hPa 0,0 l/m 0 min 0 min 0,0 UV-I 35 W/m 0,0 km/h (0 Bft)
13.07.2014 20:22 19,6 C 17,8 C 91 % 1006,4 hPa 0,0 l/m 0 min 0 min 0,0 UV-I 33 W/m 0,0 km/h (0 Bft)
13.07.2014 20:24 19,5 C 17,8 C 91 % 1006,4 hPa 0,0 l/m 0 min 0 min 0,0 UV-I 33 W/m 0,0 km/h (0 Bft)
13.07.2014 20:26 19,5 C 17,8 C 91 % 1006,4 hPa 0,0 l/m 0 min 0 min 0,0 UV-I 35 W/m 0,0 km/h (0 Bft)
13.07.2014 20:28 19,4 C 17,8 C 92 % 1006,4 hPa 0,0 l/m 0 min 0 min 0,0 UV-I 35 W/m 2,1 km/h (1 Bft)
13.07.2014 20:30 19,4 C 17,8 C 92 % 1006,4 hPa 0,0 l/m 0 min 0 min 0,0 UV-I 37 W/m 2,1 km/h (1 Bft)
13.07.2014 20:32 19,4 C 17,8 C 92 % 1006,4 hPa 0,0 l/m 0 min 0 min 0,0 UV-I 39 W/m 0,0 km/h (0 Bft)
13.07.2014 20:34 19,4 C 17,8 C 92 % 1006,5 hPa 0,0 l/m 0 min 2 min 0,0 UV-I 39 W/m 0,0 km/h (0 Bft)
13.07.2014 20:36 19,4 C 17,8 C 92 % 1006,4 hPa 0,0 l/m 0 min 2 min 0,0 UV-I 35 W/m 0,0 km/h (0 Bft)
13.07.2014 20:38 19,4 C 17,8 C 93 % 1006,5 hPa 0,0 l/m 0 min 0 min 0,0 UV-I 32 W/m 0,0 km/h (0 Bft)
13.07.2014 20:40 19,4 C 17,8 C 93 % 1006,4 hPa 0,0 l/m 0 min 2 min 0,0 UV-I 28 W/m 0,0 km/h (0 Bft)
13.07.2014 20:42 19,4 C 17,2 C 93 % 1006,4 hPa 0,0 l/m 0 min 2 min 0,0 UV-I 23 W/m 0,0 km/h (0 Bft)
13.07.2014 20:44 19,4 C 17,2 C 93 % 1006,4 hPa 0,0 l/m 0 min 2 min 0,0 UV-I 21 W/m 0,0 km/h (0 Bft)
13.07.2014 20:46 19,4 C 17,2 C 93 % 1006,4 hPa 0,0 l/m 0 min 2 min 0,0 UV-I 19 W/m 0,0 km/h (0 Bft)
13.07.2014 20:48 19,3 C 17,2 C 94 % 1006,4 hPa 0,0 l/m 0 min 2 min 0,0 UV-I 18 W/m 0,0 km/h (0 Bft)
13.07.2014 20:50 19,3 C 17,2 C 94 % 1006,4 hPa 0,0 l/m 0 min 2 min 0,0 UV-I 16 W/m 0,0 km/h (0 Bft)
13.07.2014 20:52 19,3 C 17,2 C 93 % 1006,4 hPa 0,0 l/m 0 min 2 min 0,0 UV-I 14 W/m 0,0 km/h (0 Bft)
13.07.2014 20:54 19,3 C 17,2 C 93 % 1006,4 hPa 0,0 l/m 0 min 2 min 0,0 UV-I 14 W/m 0,0 km/h (0 Bft)
13.07.2014 20:56 19,3 C 17,2 C 93 % 1006,4 hPa 0,0 l/m 0 min 2 min 0,0 UV-I 14 W/m 0,0 km/h (0 Bft)
13.07.2014 20:58 19,3 C 17,2 C 94 % 1006,4 hPa 0,0 l/m 0 min 0 min 0,0 UV-I 14 W/m 0,0 km/h (0 Bft)
13.07.2014 21:00 19,3 C 17,2 C 94 % 1006,4 hPa 0,0 l/m 0 min 0 min 0,0 UV-I 12 W/m 0,0 km/h (0 Bft)
13.07.2014 21:02 19,3 C 17,2 C 94 % 1006,5 hPa 0,0 l/m 0 min 0 min 0,0 UV-I 11 W/m 0,0 km/h (0 Bft)
13.07.2014 21:04 19,2 C 17,2 C 94 % 1006,4 hPa 0,0 l/m 0 min 0 min 0,0 UV-I 11 W/m 0,0 km/h (0 Bft)
13.07.2014 21:06 19,2 C 17,2 C 95 % 1006,5 hPa 0,0 l/m 0 min 0 min 0,0 UV-I 11 W/m 0,0 km/h (0 Bft)
13.07.2014 21:08 19,2 C 17,2 C 95 % 1006,5 hPa 0,0 l/m 0 min 0 min 0,0 UV-I 11 W/m 0,0 km/h (0 Bft)
13.07.2014 21:10 19,2 C 17,2 C 95 % 1006,4 hPa 0,0 l/m 0 min 0 min 0,0 UV-I 11 W/m 0,0 km/h (0 Bft)
13.07.2014 21:12 19,2 C 17,2 C 95 % 1006,4 hPa 0,0 l/m 0 min 0 min 0,0 UV-I 11 W/m 0,0 km/h (0 Bft)
13.07.2014 21:14 19,1 C 17,2 C 95 % 1006,4 hPa 0,0 l/m 0 min 0 min 0,0 UV-I 11 W/m 0,0 km/h (0 Bft)
13.07.2014 21:16 19,1 C 17,2 C 95 % 1006,4 hPa 0,0 l/m 0 min 0 min 0,0 UV-I 11 W/m 0,0 km/h (0 Bft)
13.07.2014 21:18 19,0 C 17,2 C 95 % 1006,4 hPa 0,0 l/m 0 min 0 min 0,0 UV-I 9 W/m 0,0 km/h (0 Bft)
13.07.2014 21:20 18,9 C 17,2 C 95 % 1006,4 hPa 0,0 l/m 0 min 0 min 0,0 UV-I 9 W/m 0,0 km/h (0 Bft)
13.07.2014 21:22 18,9 C 16,7 C 96 % 1006,5 hPa 0,0 l/m 0 min 0 min 0,0 UV-I 9 W/m 0,0 km/h (0 Bft)
13.07.2014 21:24 18,8 C 16,7 C 96 % 1006,5 hPa 0,0 l/m 0 min 0 min 0,0 UV-I 7 W/m 0,0 km/h (0 Bft)
13.07.2014 21:26 18,8 C 16,7 C 96 % 1006,6 hPa 0,0 l/m 0 min 0 min 0,0 UV-I 7 W/m 0,0 km/h (0 Bft)
13.07.2014 21:28 18,7 C 16,7 C 96 % 1006,5 hPa 0,0 l/m 0 min 0 min 0,0 UV-I 7 W/m 0,0 km/h (0 Bft)
13.07.2014 21:30 18,7 C 16,7 C 96 % 1006,6 hPa 0,0 l/m 0 min 0 min 0,0 UV-I 7 W/m 0,0 km/h (0 Bft)
13.07.2014 21:32 18,7 C 16,7 C 96 % 1006,5 hPa 0,0 l/m 0 min 0 min 0,0 UV-I 7 W/m 0,0 km/h (0 Bft)
13.07.2014 21:34 18,7 C 16,7 C 96 % 1006,5 hPa 0,0 l/m 0 min 0 min 0,0 UV-I 7 W/m 0,0 km/h (0 Bft)
13.07.2014 21:36 18,7 C 16,7 C 96 % 1006,6 hPa 0,0 l/m 0 min 0 min 0,0 UV-I 5 W/m 0,0 km/h (0 Bft)
13.07.2014 21:38 18,7 C 16,7 C 96 % 1006,7 hPa 0,0 l/m 0 min 0 min 0,0 UV-I 5 W/m 0,0 km/h (0 Bft)
13.07.2014 21:40 18,7 C 16,7 C 96 % 1006,7 hPa 0,0 l/m 0 min 0 min 0,0 UV-I 5 W/m 6,3 km/h (2 Bft)
13.07.2014 21:42 18,7 C 16,7 C 96 % 1006,7 hPa 0,0 l/m 0 min 0 min 0,0 UV-I 0 W/m 6,3 km/h (2 Bft)
13.07.2014 21:44 18,6 C 16,7 C 96 % 1006,8 hPa 0,0 l/m 0 min 0 min 0,0 UV-I 0 W/m 6,3 km/h (2 Bft)
13.07.2014 21:46 18,6 C 16,7 C 96 % 1006,7 hPa 0,0 l/m 0 min 0 min 0,0 UV-I 0 W/m 8,4 km/h (2 Bft)
13.07.2014 21:48 18,6 C 16,7 C 96 % 1006,7 hPa 0,0 l/m 0 min 0 min 0,0 UV-I 0 W/m 6,3 km/h (2 Bft)
13.07.2014 21:50 18,5 C 16,7 C 96 % 1006,8 hPa 0,0 l/m 0 min 0 min 0,0 UV-I 0 W/m 8,4 km/h (2 Bft)
13.07.2014 21:52 18,5 C 16,7 C 96 % 1006,8 hPa 0,0 l/m 0 min 0 min 0,0 UV-I 0 W/m 4,2 km/h (1 Bft)
13.07.2014 21:54 18,5 C 16,7 C 96 % 1006,8 hPa 0,0 l/m 0 min 0 min 0,0 UV-I 0 W/m 8,4 km/h (2 Bft)
13.07.2014 21:56 18,4 C 16,7 C 96 % 1006,9 hPa 0,0 l/m 0 min 0 min 0,0 UV-I 0 W/m 8,4 km/h (2 Bft)
13.07.2014 21:58 18,4 C 16,7 C 96 % 1006,9 hPa 0,0 l/m 0 min 0 min 0,0 UV-I 0 W/m 6,3 km/h (2 Bft)
13.07.2014 22:00 18,4 C 16,7 C 96 % 1006,9 hPa 0,0 l/m 0 min 0 min 0,0 UV-I 0 W/m 6,3 km/h (2 Bft)
13.07.2014 22:02 18,4 C 16,7 C 96 % 1006,9 hPa 0,0 l/m 0 min 0 min 0,0 UV-I 0 W/m 6,3 km/h (2 Bft)
13.07.2014 22:04 18,4 C 16,7 C 96 % 1007,0 hPa 0,0 l/m 0 min 0 min 0,0 UV-I 0 W/m 8,4 km/h (2 Bft)
13.07.2014 22:06 18,4 C 16,7 C 96 % 1007,1 hPa 0,0 l/m 0 min 0 min 0,0 UV-I 0 W/m 6,3 km/h (2 Bft)
13.07.2014 22:08 18,4 C 16,7 C 96 % 1007,1 hPa 0,0 l/m 0 min 0 min 0,0 UV-I 0 W/m 8,4 km/h (2 Bft)
13.07.2014 22:10 18,4 C 16,7 C 96 % 1007,1 hPa 0,0 l/m 0 min 0 min 0,0 UV-I 0 W/m 8,4 km/h (2 Bft)
13.07.2014 22:12 18,4 C 16,7 C 96 % 1007,1 hPa 0,0 l/m 0 min 2 min 0,0 UV-I 0 W/m 12,6 km/h (3 Bft)
13.07.2014 22:14 18,4 C 16,7 C 96 % 1007,1 hPa 0,0 l/m 0 min 2 min 0,0 UV-I 0 W/m 14,6 km/h (3 Bft)
13.07.2014 22:16 18,4 C 16,7 C 96 % 1007,1 hPa 0,0 l/m 0 min 2 min 0,0 UV-I 0 W/m 12,6 km/h (3 Bft)
13.07.2014 22:18 18,4 C 16,7 C 96 % 1007,1 hPa 0,0 l/m 0 min 2 min 0,0 UV-I 0 W/m 12,6 km/h (3 Bft)
13.07.2014 22:20 18,3 C 16,7 C 96 % 1007,1 hPa 0,2 l/m 0 min 2 min 0,0 UV-I 0 W/m 12,6 km/h (3 Bft)
13.07.2014 22:22 18,3 C 16,7 C 96 % 1007,1 hPa 0,0 l/m 0 min 2 min 0,0 UV-I 0 W/m 10,5 km/h (2 Bft)
13.07.2014 22:24 18,2 C 16,7 C 96 % 1007,1 hPa 0,0 l/m 0 min 2 min 0,0 UV-I 0 W/m 23,0 km/h (4 Bft)
13.07.2014 22:26 18,2 C 16,7 C 96 % 1007,1 hPa 0,0 l/m 0 min 0 min 0,0 UV-I 0 W/m 16,7 km/h (3 Bft)
13.07.2014 22:28 18,2 C 16,7 C 96 % 1007,1 hPa 0,0 l/m 0 min 0 min 0,0 UV-I 0 W/m 14,6 km/h (3 Bft)
13.07.2014 22:30 18,1 C 16,7 C 96 % 1007,1 hPa 0,0 l/m 0 min 2 min 0,0 UV-I 0 W/m 14,6 km/h (3 Bft)
13.07.2014 22:32 18,1 C 16,7 C 96 % 1007,1 hPa 0,0 l/m 0 min 2 min 0,0 UV-I 0 W/m 14,6 km/h (3 Bft)
13.07.2014 22:34 18,1 C 16,7 C 96 % 1007,0 hPa 0,0 l/m 0 min 2 min 0,0 UV-I 0 W/m 12,6 km/h (3 Bft)
13.07.2014 22:36 18,0 C 16,1 C 96 % 1007,1 hPa 0,0 l/m 0 min 2 min 0,0 UV-I 0 W/m 12,6 km/h (3 Bft)
13.07.2014 22:38 17,9 C 16,1 C 96 % 1007,1 hPa 0,2 l/m 0 min 2 min 0,0 UV-I 0 W/m 12,6 km/h (3 Bft)
13.07.2014 22:40 17,9 C 16,1 C 96 % 1007,1 hPa 0,0 l/m 0 min 2 min 0,0 UV-I 0 W/m 6,3 km/h (2 Bft)
13.07.2014 22:42 17,9 C 16,1 C 96 % 1007,1 hPa 0,0 l/m 0 min 2 min 0,0 UV-I 0 W/m 6,3 km/h (2 Bft)
13.07.2014 22:44 17,9 C 16,1 C 96 % 1007,1 hPa 0,0 l/m 0 min 2 min 0,0 UV-I 0 W/m 8,4 km/h (2 Bft)
13.07.2014 22:46 17,9 C 16,1 C 96 % 1007,1 hPa 0,0 l/m 0 min 2 min 0,0 UV-I 0 W/m 8,4 km/h (2 Bft)
13.07.2014 22:48 17,8 C 16,1 C 96 % 1007,1 hPa 0,0 l/m 0 min 0 min 0,0 UV-I 0 W/m 8,4 km/h (2 Bft)
13.07.2014 22:50 17,8 C 16,1 C 96 % 1007,1 hPa 0,0 l/m 0 min 0 min 0,0 UV-I 0 W/m 2,1 km/h (1 Bft)
13.07.2014 22:52 17,8 C 16,1 C 97 % 1007,1 hPa 0,0 l/m 0 min 0 min 0,0 UV-I 0 W/m 10,5 km/h (2 Bft)
13.07.2014 22:54 17,7 C 16,1 C 97 % 1007,1 hPa 0,0 l/m 0 min 0 min 0,0 UV-I 0 W/m 10,5 km/h (2 Bft)
13.07.2014 22:56 17,7 C 16,1 C 97 % 1007,1 hPa 0,0 l/m 0 min 0 min 0,0 UV-I 0 W/m 16,7 km/h (3 Bft)
13.07.2014 22:58 17,7 C 16,1 C 97 % 1007,1 hPa 0,0 l/m 0 min 0 min 0,0 UV-I 0 W/m 16,7 km/h (3 Bft)
13.07.2014 23:00 17,6 C 16,1 C 97 % 1007,1 hPa 0,0 l/m 0 min 0 min 0,0 UV-I 0 W/m 16,7 km/h (3 Bft)
13.07.2014 23:02 17,6 C 16,1 C 97 % 1007,1 hPa 0,0 l/m 0 min 0 min 0,0 UV-I 0 W/m 10,5 km/h (2 Bft)
13.07.2014 23:04 17,6 C 16,1 C 97 % 1007,1 hPa 0,0 l/m 0 min 0 min 0,0 UV-I 0 W/m 10,5 km/h (2 Bft)
13.07.2014 23:06 17,6 C 16,1 C 97 % 1007,1 hPa 0,0 l/m 0 min 2 min 0,0 UV-I 0 W/m 12,6 km/h (3 Bft)
13.07.2014 23:08 17,5 C 16,1 C 97 % 1007,1 hPa 0,0 l/m 0 min 2 min 0,0 UV-I 0 W/m 12,6 km/h (3 Bft)
13.07.2014 23:10 17,5 C 16,1 C 97 % 1007,2 hPa 0,0 l/m 0 min 0 min 0,0 UV-I 0 W/m 12,6 km/h (3 Bft)
13.07.2014 23:12 17,5 C 16,1 C 97 % 1007,2 hPa 0,0 l/m 0 min 0 min 0,0 UV-I 0 W/m 18,8 km/h (3 Bft)
13.07.2014 23:14 17,5 C 16,1 C 97 % 1007,2 hPa 0,0 l/m 0 min 0 min 0,0 UV-I 0 W/m 18,8 km/h (3 Bft)
13.07.2014 23:16 17,5 C 16,1 C 97 % 1007,2 hPa 0,0 l/m 0 min 0 min 0,0 UV-I 0 W/m 16,7 km/h (3 Bft)
13.07.2014 23:18 17,5 C 16,1 C 97 % 1007,2 hPa 0,0 l/m 0 min 0 min 0,0 UV-I 0 W/m 10,5 km/h (2 Bft)
13.07.2014 23:20 17,5 C 16,1 C 97 % 1007,3 hPa 0,0 l/m 0 min 0 min 0,0 UV-I 0 W/m 18,8 km/h (3 Bft)
13.07.2014 23:22 17,4 C 16,1 C 97 % 1007,2 hPa 0,0 l/m 0 min 0 min 0,0 UV-I 0 W/m 20,9 km/h (4 Bft)
13.07.2014 23:24 17,4 C 16,1 C 97 % 1007,3 hPa 0,0 l/m 0 min 0 min 0,0 UV-I 0 W/m 12,6 km/h (3 Bft)
13.07.2014 23:26 17,4 C 16,1 C 98 % 1007,3 hPa 0,0 l/m 0 min 0 min 0,0 UV-I 0 W/m 10,5 km/h (2 Bft)
13.07.2014 23:28 17,4 C 16,1 C 98 % 1007,3 hPa 0,0 l/m 0 min 0 min 0,0 UV-I 0 W/m 12,6 km/h (3 Bft)
13.07.2014 23:30 17,4 C 16,1 C 98 % 1007,3 hPa 0,0 l/m 0 min 0 min 0,0 UV-I 0 W/m 12,6 km/h (3 Bft)
13.07.2014 23:32 17,4 C 16,1 C 98 % 1007,3 hPa 0,0 l/m 0 min 0 min 0,0 UV-I 0 W/m 14,6 km/h (3 Bft)
13.07.2014 23:34 17,4 C 16,1 C 98 % 1007,4 hPa 0,0 l/m 0 min 0 min 0,0 UV-I 0 W/m 14,6 km/h (3 Bft)
13.07.2014 23:36 17,4 C 16,1 C 98 % 1007,4 hPa 0,0 l/m 0 min 0 min 0,0 UV-I 0 W/m 14,6 km/h (3 Bft)
13.07.2014 23:38 17,4 C 16,1 C 98 % 1007,5 hPa 0,0 l/m 0 min 0 min 0,0 UV-I 0 W/m 10,5 km/h (2 Bft)
13.07.2014 23:40 17,4 C 16,1 C 98 % 1007,4 hPa 0,0 l/m 0 min 0 min 0,0 UV-I 0 W/m 12,6 km/h (3 Bft)
13.07.2014 23:42 17,4 C 16,1 C 98 % 1007,4 hPa 0,0 l/m 0 min 0 min 0,0 UV-I 0 W/m 14,6 km/h (3 Bft)
13.07.2014 23:44 17,3 C 16,1 C 98 % 1007,5 hPa 0,0 l/m 0 min 0 min 0,0 UV-I 0 W/m 12,6 km/h (3 Bft)
13.07.2014 23:46 17,3 C 16,1 C 98 % 1007,4 hPa 0,0 l/m 0 min 0 min 0,0 UV-I 0 W/m 8,4 km/h (2 Bft)
13.07.2014 23:48 17,3 C 16,1 C 98 % 1007,3 hPa 0,0 l/m 0 min 0 min 0,0 UV-I 0 W/m 16,7 km/h (3 Bft)
13.07.2014 23:50 17,3 C 16,1 C 98 % 1007,3 hPa 0,0 l/m 0 min 0 min 0,0 UV-I 0 W/m 10,5 km/h (2 Bft)
13.07.2014 23:52 17,2 C 16,1 C 98 % 1007,4 hPa 0,0 l/m 0 min 0 min 0,0 UV-I 0 W/m 8,4 km/h (2 Bft)
13.07.2014 23:54 17,2 C 16,1 C 98 % 1007,3 hPa 0,0 l/m 0 min 0 min 0,0 UV-I 0 W/m 14,6 km/h (3 Bft)
13.07.2014 23:56 17,2 C 15,6 C 98 % 1007,3 hPa 0,0 l/m 0 min 0 min 0,0 UV-I 0 W/m 12,6 km/h (3 Bft)
13.07.2014 23:58 17,2 C 16,1 C 98 % 1007,4 hPa 0,0 l/m 0 min 0 min 0,0 UV-I 0 W/m 14,6 km/h (3 Bft)
_ Min-Zeit 03:06 02:36 16:40 18:32 - - - - - 00:02
Minimum _ 16,4 C 15,6 C 74 % 1006,2 hPa - - - - - 0,0 km/h (0 Bft)
_ Max-Zeit 16:38 16:02 23:26 00:00 17:00 06:54 09:34 14:58 15:00 16:52
Maximum _ 23,1 C 23,3 C 98 % 1011,9 hPa 0,8 l/m 2 min 2 min 4,5 UV-I 860 W/m 31,4 km/h
W (5 Bft)
Durchschnitt _ 18,3 C 17,5 C 92 % 1008,4 hPa #3,0 l/m #2:00 h #1:34 h 1,5 UV-I 174 W/m 9,9 km/h (2 Bft)
© 2014 W. Hausmann